Observation data for Snyder SSW on 04/26/2019      Previous  Date       Current Mesonet Observations  Soil Data  Daily Summary Page  Observations in Plain Language
KWT1 260500Z 04009KT 18/12 A3015 RMK A01 T01810121  RH  068%=      5-min Rain = 0
KWT1 260501Z 05008KT 18/12 A3015 RMK A01 T01810121  RH  068%=      5-min Rain = 0
KWT1 260502Z 04008KT 18/12 A3015 RMK A01 T01810121  RH  068%=      5-min Rain = 0
KWT1 260503Z 05008KT 18/12 A3015 RMK A01 T01820122  RH  068%=      5-min Rain = 0
KWT1 260504Z 05009KT 18/12 A3015 RMK A01 T01810122  RH  068%=      5-min Rain = 0
KWT1 260505Z 05009KT 18/12 A3015 RMK A01 T01810121  RH  068%=      5-min Rain = 0
KWT1 260506Z 05008KT 18/12 A3015 RMK A01 T01810122  RH  068%=      5-min Rain = 0
KWT1 260507Z 05007KT 18/12 A3015 RMK A01 T01810122  RH  068%=      5-min Rain = 0
KWT1 260508Z 05008KT 18/12 A3015 RMK A01 T01810122  RH  069%=      5-min Rain = 0
KWT1 260509Z 05009KT 18/12 A3015 RMK A01 T01810122  RH  069%=      5-min Rain = 0
KWT1 260510Z 05009KT 18/12 A3015 RMK A01 T01810121  RH  068%=      5-min Rain = 0
KWT1 260511Z 06010KT 18/12 A3015 RMK A01 T01810122  RH  068%=      5-min Rain = 0
KWT1 260512Z 05008KT 18/12 A3015 RMK A01 T01820122  RH  068%=      5-min Rain = 0
KWT1 260513Z 05008KT 18/12 A3015 RMK A01 T01820122  RH  068%=      5-min Rain = 0
KWT1 260514Z 06008KT 18/12 A3015 RMK A01 T01820122  RH  068%=      5-min Rain = 0
KWT1 260515Z 05009KT 18/12 A3015 RMK A01 T01810122  RH  068%=      5-min Rain = 0
KWT1 260516Z 05009KT 18/12 A3015 RMK A01 T01810122  RH  068%=      5-min Rain = 0
KWT1 260517Z 06008KT 18/12 A3015 RMK A01 T01800122  RH  068%=      5-min Rain = 0
KWT1 260518Z 05009KT 18/12 A3015 RMK A01 T01800121  RH  068%=      5-min Rain = 0
KWT1 260519Z 06009KT 18/12 A3016 RMK A01 T01810121  RH  068%=      5-min Rain = 0
KWT1 260520Z 06009KT 18/12 A3016 RMK A01 T01810121  RH  068%=      5-min Rain = 0
KWT1 260521Z 05010KT 18/12 A3016 RMK A01 T01810121  RH  068%=      5-min Rain = 0
KWT1 260522Z 05009KT 18/12 A3016 RMK A01 T01810121  RH  068%=      5-min Rain = 0
KWT1 260523Z 05009KT 18/12 A3016 RMK A01 T01810121  RH  068%=      5-min Rain = 0
KWT1 260524Z 05009KT 18/12 A3016 RMK A01 T01810122  RH  068%=      5-min Rain = 0
KWT1 260525Z 05009KT 18/12 A3016 RMK A01 T01800121  RH  068%=      5-min Rain = 0
KWT1 260526Z 05010KT 18/12 A3016 RMK A01 T01800120  RH  068%=      5-min Rain = 0
KWT1 260527Z 05010KT 18/12 A3016 RMK A01 T01800121  RH  068%=      5-min Rain = 0
KWT1 260528Z 05010KT 18/12 A3016 RMK A01 T01800121  RH  068%=      5-min Rain = 0
KWT1 260529Z 05009KT 18/12 A3016 RMK A01 T01800121  RH  068%=      5-min Rain = 0
KWT1 260530Z 05009KT 18/12 A3016 RMK A01 T01800121  RH  068%=      5-min Rain = 0
KWT1 260531Z 05007KT 18/12 A3016 RMK A01 T01800122  RH  069%=      5-min Rain = 0
KWT1 260532Z 04007KT 18/12 A3016 RMK A01 T01790122  RH  069%=      5-min Rain = 0
KWT1 260533Z 04007KT 18/12 A3016 RMK A01 T01780122  RH  070%=      5-min Rain = 0
KWT1 260534Z 05008KT 18/12 A3016 RMK A01 T01770121  RH  070%=      5-min Rain = 0
KWT1 260535Z 05007KT 18/12 A3016 RMK A01 T01770121  RH  070%=      5-min Rain = 0
KWT1 260536Z 04007KT 18/12 A3016 RMK A01 T01770121  RH  070%=      5-min Rain = 0
KWT1 260537Z 04007KT 18/12 A3016 RMK A01 T01760122  RH  070%=      5-min Rain = 0
KWT1 260538Z 04007KT 18/12 A3016 RMK A01 T01760122  RH  071%=      5-min Rain = 0
KWT1 260539Z 04007KT 18/12 A3016 RMK A01 T01750122  RH  071%=      5-min Rain = 0
KWT1 260540Z 04008KT 18/12 A3016 RMK A01 T01750122  RH  071%=      5-min Rain = 0
KWT1 260541Z 04007KT 17/12 A3016 RMK A01 T01740122  RH  071%=      5-min Rain = 0
KWT1 260542Z 04007KT 17/12 A3016 RMK A01 T01740123  RH  072%=      5-min Rain = 0
KWT1 260543Z 04007KT 17/12 A3016 RMK A01 T01730123  RH  072%=      5-min Rain = 0
KWT1 260544Z 04007KT 17/12 A3016 RMK A01 T01720123  RH  072%=      5-min Rain = 0
KWT1 260545Z 05007KT 17/12 A3016 RMK A01 T01720123  RH  073%=      5-min Rain = 0
KWT1 260546Z 05007KT 17/12 A3016 RMK A01 T01710123  RH  073%=      5-min Rain = 0
KWT1 260547Z 05007KT 17/12 A3016 RMK A01 T01710123  RH  073%=      5-min Rain = 0
KWT1 260548Z 05006KT 17/12 A3016 RMK A01 T01710124  RH  073%=      5-min Rain = 0
KWT1 260549Z 05007KT 17/12 A3016 RMK A01 T01710124  RH  074%=      5-min Rain = 0
KWT1 260550Z 05007KT 17/12 A3016 RMK A01 T01700123  RH  074%=      5-min Rain = 0
KWT1 260551Z 05007KT 17/12 A3016 RMK A01 T01690124  RH  074%=      5-min Rain = 0
KWT1 260552Z 05007KT 17/12 A3016 RMK A01 T01680123  RH  075%=      5-min Rain = 0
KWT1 260553Z 05006KT 17/12 A3016 RMK A01 T01680123  RH  075%=      5-min Rain = 0
KWT1 260554Z 04007KT 17/12 A3016 RMK A01 T01680123  RH  075%=      5-min Rain = 0
KWT1 260555Z 04006KT 17/12 A3016 RMK A01 T01670123  RH  075%=      5-min Rain = 0
KWT1 260556Z 04006KT 17/12 A3016 RMK A01 T01670124  RH  076%=      5-min Rain = 0
KWT1 260557Z 04007KT 17/12 A3016 RMK A01 T01660123  RH  076%=      5-min Rain = 0
KWT1 260558Z 04006KT 17/12 A3016 RMK A01 T01660123  RH  076%=      5-min Rain = 0
KWT1 260559Z 04007KT 17/12 A3017 RMK A01 T01660123  RH  076%=      5-min Rain = 0
KWT1 260600Z 04006KT 17/12 A3017 RMK A01 T01660123  RH  076%=      5-min Rain = 0
KWT1 260601Z 04006KT 17/12 A3017 RMK A01 T01650123  RH  076%=      5-min Rain = 0
KWT1 260602Z 05007KT 17/12 A3017 RMK A01 T01650123  RH  076%=      5-min Rain = 0
KWT1 260603Z 05007KT 17/12 A3017 RMK A01 T01650123  RH  076%=      5-min Rain = 0
KWT1 260604Z 05006KT 17/12 A3017 RMK A01 T01650124  RH  076%=      5-min Rain = 0
KWT1 260605Z 05006KT 17/12 A3017 RMK A01 T01650124  RH  076%=      5-min Rain = 0
KWT1 260606Z 06006KT 17/12 A3017 RMK A01 T01650124  RH  077%=      5-min Rain = 0
KWT1 260607Z 06005KT 16/12 A3017 RMK A01 T01640124  RH  077%=      5-min Rain = 0
KWT1 260608Z 06005KT 16/12 A3017 RMK A01 T01640124  RH  077%=      5-min Rain = 0
KWT1 260609Z 06007KT 16/12 A3017 RMK A01 T01640124  RH  077%=      5-min Rain = 0
KWT1 260610Z 06007KT 16/12 A3017 RMK A01 T01640123  RH  077%=      5-min Rain = 0
KWT1 260611Z 06007KT 16/12 A3017 RMK A01 T01640123  RH  077%=      5-min Rain = 0
KWT1 260612Z 06006KT 16/12 A3017 RMK A01 T01640123  RH  076%=      5-min Rain = 0
KWT1 260613Z 05009KT 17/12 A3017 RMK A01 T01650123  RH  076%=      5-min Rain = 0
KWT1 260614Z 06007KT 17/12 A3017 RMK A01 T01650122  RH  075%=      5-min Rain = 0
KWT1 260615Z 06009KT 17/12 A3017 RMK A01 T01660122  RH  075%=      5-min Rain = 0
KWT1 260616Z 06008KT 17/12 A3017 RMK A01 T01660122  RH  075%=      5-min Rain = 0
KWT1 260617Z 06008KT 17/12 A3017 RMK A01 T01660122  RH  075%=      5-min Rain = 0
KWT1 260618Z 05008KT 17/12 A3017 RMK A01 T01660122  RH  075%=      5-min Rain = 0
KWT1 260619Z 06008KT 17/12 A3017 RMK A01 T01660122  RH  075%=      5-min Rain = 0
KWT1 260620Z 06008KT 17/12 A3017 RMK A01 T01660122  RH  075%=      5-min Rain = 0
KWT1 260621Z 07008KT 17/12 A3017 RMK A01 T01660122  RH  075%=      5-min Rain = 0
KWT1 260622Z 06007KT 17/12 A3017 RMK A01 T01660121  RH  075%=      5-min Rain = 0
KWT1 260623Z 07008KT 17/12 A3017 RMK A01 T01660121  RH  075%=      5-min Rain = 0
KWT1 260624Z 06008KT 17/12 A3017 RMK A01 T01660120  RH  074%=      5-min Rain = 0
KWT1 260625Z 06007KT 17/12 A3017 RMK A01 T01660120  RH  074%=      5-min Rain = 0
KWT1 260626Z 06008KT 17/12 A3017 RMK A01 T01660120  RH  074%=      5-min Rain = 0
KWT1 260627Z 06006KT 17/12 A3017 RMK A01 T01660120  RH  074%=      5-min Rain = 0
KWT1 260628Z 06007KT 17/12 A3017 RMK A01 T01660120  RH  074%=      5-min Rain = 0
KWT1 260629Z 06007KT 17/12 A3017 RMK A01 T01650120  RH  074%=      5-min Rain = 0
KWT1 260630Z 06007KT 16/12 A3017 RMK A01 T01640120  RH  075%=      5-min Rain = 0
KWT1 260631Z 06005KT 16/12 A3017 RMK A01 T01640120  RH  075%=      5-min Rain = 0
KWT1 260632Z 05008KT 16/12 A3017 RMK A01 T01640120  RH  075%=      5-min Rain = 0
KWT1 260633Z 05007KT 16/12 A3017 RMK A01 T01640119  RH  075%=      5-min Rain = 0
KWT1 260634Z 05006KT 16/12 A3017 RMK A01 T01640120  RH  075%=      5-min Rain = 0
KWT1 260635Z 05006KT 16/12 A3017 RMK A01 T01640120  RH  075%=      5-min Rain = 0
KWT1 260636Z 05006KT 16/12 A3017 RMK A01 T01630120  RH  076%=      5-min Rain = 0
KWT1 260637Z 05007KT 16/12 A3018 RMK A01 T01630120  RH  076%=      5-min Rain = 0
KWT1 260638Z 05007KT 16/12 A3018 RMK A01 T01620120  RH  076%=      5-min Rain = 0
KWT1 260639Z 05007KT 16/12 A3018 RMK A01 T01620120  RH  076%=      5-min Rain = 0
KWT1 260640Z 05006KT 16/12 A3018 RMK A01 T01620120  RH  076%=      5-min Rain = 0
KWT1 260641Z 05007KT 16/12 A3018 RMK A01 T01620120  RH  076%=      5-min Rain = 0
KWT1 260642Z 05006KT 16/12 A3018 RMK A01 T01620119  RH  076%=      5-min Rain = 0
KWT1 260643Z 05007KT 16/12 A3018 RMK A01 T01620119  RH  076%=      5-min Rain = 0
KWT1 260644Z 05008KT 16/12 A3018 RMK A01 T01620119  RH  076%=      5-min Rain = 0
KWT1 260645Z 05007KT 16/12 A3018 RMK A01 T01620119  RH  076%=      5-min Rain = 0
KWT1 260646Z 05007KT 16/12 A3018 RMK A01 T01620119  RH  076%=      5-min Rain = 0
KWT1 260647Z 05007KT 16/12 A3018 RMK A01 T01620119  RH  076%=      5-min Rain = 0
KWT1 260648Z 06006KT 16/12 A3018 RMK A01 T01610119  RH  076%=      5-min Rain = 0
KWT1 260649Z 06007KT 16/12 A3018 RMK A01 T01610119  RH  076%=      5-min Rain = 0
KWT1 260650Z 06006KT 16/12 A3018 RMK A01 T01610119  RH  076%=      5-min Rain = 0
KWT1 260651Z 06007KT 16/12 A3018 RMK A01 T01600118  RH  076%=      5-min Rain = 0
KWT1 260652Z 06006KT 16/12 A3018 RMK A01 T01600118  RH  076%=      5-min Rain = 0
KWT1 260653Z 06006KT 16/12 A3018 RMK A01 T01600118  RH  076%=      5-min Rain = 0
KWT1 260654Z 06006KT 16/12 A3018 RMK A01 T01600117  RH  076%=      5-min Rain = 0
KWT1 260655Z 06006KT 16/12 A3018 RMK A01 T01600117  RH  075%=      5-min Rain = 0
KWT1 260656Z 06007KT 16/12 A3018 RMK A01 T01600117  RH  075%=      5-min Rain = 0
KWT1 260657Z 06006KT 16/12 A3018 RMK A01 T01600117  RH  075%=      5-min Rain = 0
KWT1 260658Z 07006KT 16/12 A3018 RMK A01 T01600116  RH  075%=      5-min Rain = 0
KWT1 260659Z 06007KT 16/12 A3018 RMK A01 T01600116  RH  075%=      5-min Rain = 0
KWT1 260700Z 07007KT 16/12 A3018 RMK A01 T01600115  RH  075%=      5-min Rain = 0
KWT1 260701Z 06006KT 16/12 A3018 RMK A01 T01600115  RH  074%=      5-min Rain = 0
KWT1 260702Z 06007KT 16/11 A3018 RMK A01 T01600114  RH  074%=      5-min Rain = 0
KWT1 260703Z 06007KT 16/11 A3018 RMK A01 T01600113  RH  074%=      5-min Rain = 0
KWT1 260704Z 06006KT 16/11 A3018 RMK A01 T01600113  RH  073%=      5-min Rain = 0
KWT1 260705Z 07007KT 16/11 A3018 RMK A01 T01600113  RH  073%=      5-min Rain = 0
KWT1 260706Z 06007KT 16/11 A3018 RMK A01 T01610112  RH  073%=      5-min Rain = 0
KWT1 260707Z 06006KT 16/11 A3018 RMK A01 T01610112  RH  073%=      5-min Rain = 0
KWT1 260708Z 07007KT 16/11 A3018 RMK A01 T01610113  RH  073%=      5-min Rain = 0
KWT1 260709Z 06007KT 16/11 A3018 RMK A01 T01600112  RH  073%=      5-min Rain = 0
KWT1 260710Z 07008KT 16/11 A3018 RMK A01 T01600111  RH  073%=      5-min Rain = 0
KWT1 260711Z 06007KT 16/11 A3018 RMK A01 T01600111  RH  073%=      5-min Rain = 0
KWT1 260712Z 07007KT 16/11 A3018 RMK A01 T01610112  RH  073%=      5-min Rain = 0
KWT1 260713Z 07007KT 16/11 A3018 RMK A01 T01600111  RH  072%=      5-min Rain = 0
KWT1 260714Z 06007KT 16/11 A3018 RMK A01 T01610110  RH  072%=      5-min Rain = 0
KWT1 260715Z 07008KT 16/11 A3018 RMK A01 T01610110  RH  072%=      5-min Rain = 0
KWT1 260716Z 07006KT 16/11 A3018 RMK A01 T01610110  RH  072%=      5-min Rain = 0
KWT1 260717Z 07007KT 16/11 A3018 RMK A01 T01600110  RH  072%=      5-min Rain = 0
KWT1 260718Z 07006KT 16/11 A3018 RMK A01 T01600109  RH  072%=      5-min Rain = 0
KWT1 260719Z 06006KT 16/11 A3018 RMK A01 T01590110  RH  072%=      5-min Rain = 0
KWT1 260720Z 06008KT 16/11 A3018 RMK A01 T01590109  RH  072%=      5-min Rain = 0
KWT1 260721Z 06008KT 16/11 A3018 RMK A01 T01580109  RH  072%=      5-min Rain = 0
KWT1 260722Z 06007KT 16/11 A3018 RMK A01 T01590109  RH  072%=      5-min Rain = 0
KWT1 260723Z 07009KT 16/11 A3018 RMK A01 T01590109  RH  072%=      5-min Rain = 0
KWT1 260724Z 06007KT 16/11 A3018 RMK A01 T01600108  RH  072%=      5-min Rain = 0
KWT1 260725Z 07008KT 16/11 A3018 RMK A01 T01600109  RH  072%=      5-min Rain = 0
KWT1 260726Z 06008KT 16/11 A3018 RMK A01 T01590109  RH  072%=      5-min Rain = 0
KWT1 260727Z 06006KT 16/11 A3018 RMK A01 T01600109  RH  072%=      5-min Rain = 0
KWT1 260728Z 06008KT 16/11 A3018 RMK A01 T01600109  RH  072%=      5-min Rain = 0
KWT1 260729Z 07009KT 16/11 A3018 RMK A01 T01590109  RH  072%=      5-min Rain = 0
KWT1 260730Z 07008KT 16/11 A3018 RMK A01 T01590108  RH  072%=      5-min Rain = 0
KWT1 260731Z 07008KT 16/11 A3018 RMK A01 T01600109  RH  072%=      5-min Rain = 0
KWT1 260732Z 07009KT 16/11 A3018 RMK A01 T01600109  RH  072%=      5-min Rain = 0
KWT1 260733Z 07007KT 16/11 A3018 RMK A01 T01600109  RH  072%=      5-min Rain = 0
KWT1 260734Z 07008KT 16/11 A3018 RMK A01 T01600110  RH  072%=      5-min Rain = 0
KWT1 260735Z 07007KT 16/11 A3018 RMK A01 T01590110  RH  072%=      5-min Rain = 0
KWT1 260736Z 08007KT 16/11 A3018 RMK A01 T01580110  RH  073%=      5-min Rain = 0
KWT1 260737Z 08007KT 16/11 A3018 RMK A01 T01580111  RH  073%=      5-min Rain = 0
KWT1 260738Z 08007KT 16/11 A3018 RMK A01 T01570110  RH  074%=      5-min Rain = 0
KWT1 260739Z 08007KT 16/11 A3018 RMK A01 T01570110  RH  074%=      5-min Rain = 0
KWT1 260740Z 08007KT 16/11 A3018 RMK A01 T01570110  RH  073%=      5-min Rain = 0
KWT1 260741Z 08006KT 16/11 A3018 RMK A01 T01570110  RH  074%=      5-min Rain = 0
KWT1 260742Z 08006KT 16/11 A3018 RMK A01 T01570110  RH  074%=      5-min Rain = 0
KWT1 260743Z 07005KT 16/11 A3018 RMK A01 T01570110  RH  074%=      5-min Rain = 0
KWT1 260744Z 08006KT 16/11 A3018 RMK A01 T01560110  RH  074%=      5-min Rain = 0
KWT1 260745Z 07006KT 16/11 A3018 RMK A01 T01560109  RH  074%=      5-min Rain = 0
KWT1 260746Z 08007KT 16/11 A3018 RMK A01 T01560109  RH  074%=      5-min Rain = 0
KWT1 260747Z 08006KT 16/11 A3018 RMK A01 T01560109  RH  073%=      5-min Rain = 0
KWT1 260748Z 08005KT 16/11 A3018 RMK A01 T01560109  RH  074%=      5-min Rain = 0
KWT1 260749Z 08006KT 16/11 A3018 RMK A01 T01550109  RH  074%=      5-min Rain = 0
KWT1 260750Z 07005KT 16/11 A3018 RMK A01 T01550109  RH  074%=      5-min Rain = 0
KWT1 260751Z 07005KT 16/11 A3018 RMK A01 T01550109  RH  074%=      5-min Rain = 0
KWT1 260752Z 07006KT 15/11 A3018 RMK A01 T01540109  RH  074%=      5-min Rain = 0
KWT1 260753Z 07008KT 15/11 A3018 RMK A01 T01540108  RH  074%=      5-min Rain = 0
KWT1 260754Z 07007KT 16/11 A3018 RMK A01 T01550108  RH  073%=      5-min Rain = 0
KWT1 260755Z 07007KT 16/11 A3018 RMK A01 T01560108  RH  073%=      5-min Rain = 0
KWT1 260756Z 08007KT 16/11 A3018 RMK A01 T01570108  RH  072%=      5-min Rain = 0
KWT1 260757Z 07006KT 16/11 A3018 RMK A01 T01570108  RH  073%=      5-min Rain = 0
KWT1 260758Z 07007KT 16/11 A3018 RMK A01 T01560108  RH  073%=      5-min Rain = 0
KWT1 260759Z 07007KT 16/11 A3018 RMK A01 T01560108  RH  073%=      5-min Rain = 0
KWT1 260800Z 07007KT 16/11 A3018 RMK A01 T01560108  RH  073%=      5-min Rain = 0
KWT1 260801Z 07006KT 16/11 A3018 RMK A01 T01560108  RH  073%=      5-min Rain = 0
KWT1 260802Z 07007KT 16/11 A3018 RMK A01 T01550108  RH  073%=      5-min Rain = 0
KWT1 260803Z 07007KT 16/11 A3018 RMK A01 T01550108  RH  073%=      5-min Rain = 0
KWT1 260804Z 07007KT 16/11 A3018 RMK A01 T01550108  RH  073%=      5-min Rain = 0
KWT1 260805Z 07008KT 16/11 A3018 RMK A01 T01550108  RH  073%=      5-min Rain = 0
KWT1 260806Z 07009KT 16/11 A3018 RMK A01 T01550108  RH  073%=      5-min Rain = 0
KWT1 260807Z 06007KT 16/11 A3017 RMK A01 T01550108  RH  073%=      5-min Rain = 0
KWT1 260808Z 06008KT 16/11 A3017 RMK A01 T01560108  RH  073%=      5-min Rain = 0
KWT1 260809Z 07008KT 16/11 A3017 RMK A01 T01560108  RH  073%=      5-min Rain = 0
KWT1 260810Z 06008KT 16/11 A3017 RMK A01 T01550108  RH  074%=      5-min Rain = 0
KWT1 260811Z 07007KT 15/11 A3017 RMK A01 T01540108  RH  074%=      5-min Rain = 0
KWT1 260812Z 07008KT 15/11 A3017 RMK A01 T01540108  RH  074%=      5-min Rain = 0
KWT1 260813Z 07007KT 16/11 A3017 RMK A01 T01550108  RH  074%=      5-min Rain = 0
KWT1 260814Z 07008KT 15/11 A3017 RMK A01 T01540109  RH  074%=      5-min Rain = 0
KWT1 260815Z 07008KT 15/11 A3017 RMK A01 T01540108  RH  074%=      5-min Rain = 0
KWT1 260816Z 07007KT 15/11 A3017 RMK A01 T01540108  RH  074%=      5-min Rain = 0
KWT1 260817Z 07008KT 15/11 A3017 RMK A01 T01540108  RH  074%=      5-min Rain = 0
KWT1 260818Z 07007KT 16/11 A3017 RMK A01 T01550109  RH  074%=      5-min Rain = 0
KWT1 260819Z 07007KT 15/11 A3017 RMK A01 T01540109  RH  074%=      5-min Rain = 0
KWT1 260820Z 07007KT 15/11 A3017 RMK A01 T01540109  RH  075%=      5-min Rain = 0
KWT1 260821Z 07006KT 15/11 A3018 RMK A01 T01530109  RH  075%=      5-min Rain = 0
KWT1 260822Z 07007KT 15/11 A3018 RMK A01 T01530109  RH  075%=      5-min Rain = 0
KWT1 260823Z 07007KT 15/11 A3018 RMK A01 T01530109  RH  075%=      5-min Rain = 0
KWT1 260824Z 07006KT 15/11 A3017 RMK A01 T01530109  RH  075%=      5-min Rain = 0
KWT1 260825Z 07006KT 15/11 A3017 RMK A01 T01530109  RH  075%=      5-min Rain = 0
KWT1 260826Z 07007KT 15/11 A3017 RMK A01 T01520109  RH  076%=      5-min Rain = 0
KWT1 260827Z 07006KT 15/11 A3017 RMK A01 T01520109  RH  076%=      5-min Rain = 0
KWT1 260828Z 07008KT 15/11 A3018 RMK A01 T01520110  RH  076%=      5-min Rain = 0
KWT1 260829Z 08008KT 15/11 A3018 RMK A01 T01520110  RH  076%=      5-min Rain = 0
KWT1 260830Z 08008KT 15/11 A3018 RMK A01 T01520110  RH  076%=      5-min Rain = 0
KWT1 260831Z 08007KT 15/11 A3018 RMK A01 T01520110  RH  076%=      5-min Rain = 0
KWT1 260832Z 07007KT 15/11 A3018 RMK A01 T01530111  RH  076%=      5-min Rain = 0
KWT1 260833Z 07007KT 15/11 A3018 RMK A01 T01520111  RH  076%=      5-min Rain = 0
KWT1 260834Z 07007KT 15/11 A3018 RMK A01 T01520111  RH  077%=      5-min Rain = 0
KWT1 260835Z 07007KT 15/11 A3018 RMK A01 T01520111  RH  077%=      5-min Rain = 0
KWT1 260836Z 06009KT 15/11 A3018 RMK A01 T01520111  RH  077%=      5-min Rain = 0
KWT1 260837Z 07008KT 15/11 A3018 RMK A01 T01520111  RH  077%=      5-min Rain = 0
KWT1 260838Z 06007KT 15/11 A3018 RMK A01 T01520112  RH  077%=      5-min Rain = 0
KWT1 260839Z 06007KT 15/11 A3017 RMK A01 T01520112  RH  077%=      5-min Rain = 0
KWT1 260840Z 06008KT 15/11 A3017 RMK A01 T01520112  RH  077%=      5-min Rain = 0
KWT1 260841Z 07009KT 15/11 A3018 RMK A01 T01510112  RH  077%=      5-min Rain = 0
KWT1 260842Z 07008KT 15/11 A3018 RMK A01 T01520112  RH  077%=      5-min Rain = 0
KWT1 260843Z 07009KT 15/11 A3018 RMK A01 T01520112  RH  077%=      5-min Rain = 0
KWT1 260844Z 07009KT 15/11 A3018 RMK A01 T01520112  RH  077%=      5-min Rain = 0
KWT1 260845Z 07008KT 15/11 A3018 RMK A01 T01520112  RH  077%=      5-min Rain = 0
KWT1 260846Z 07009KT 15/11 A3018 RMK A01 T01520112  RH  077%=      5-min Rain = 0
KWT1 260847Z 07008KT 15/11 A3018 RMK A01 T01520113  RH  077%=      5-min Rain = 0
KWT1 260848Z 07009KT 15/11 A3017 RMK A01 T01520113  RH  077%=      5-min Rain = 0
KWT1 260849Z 07009KT 15/11 A3017 RMK A01 T01510113  RH  078%=      5-min Rain = 0
KWT1 260850Z 07010KT 15/11 A3017 RMK A01 T01510113  RH  078%=      5-min Rain = 0
KWT1 260851Z 07009KT 15/11 A3017 RMK A01 T01510112  RH  078%=      5-min Rain = 0
KWT1 260852Z 07009KT 15/11 A3017 RMK A01 T01510112  RH  078%=      5-min Rain = 0
KWT1 260853Z 07009KT 15/11 A3017 RMK A01 T01510113  RH  078%=      5-min Rain = 0
KWT1 260854Z 07009KT 15/11 A3017 RMK A01 T01510112  RH  078%=      5-min Rain = 0
KWT1 260855Z 07008KT 15/11 A3018 RMK A01 T01510112  RH  078%=      5-min Rain = 0
KWT1 260856Z 08008KT 15/11 A3018 RMK A01 T01510113  RH  078%=      5-min Rain = 0
KWT1 260857Z 07009KT 15/11 A3018 RMK A01 T01510112  RH  078%=      5-min Rain = 0
KWT1 260858Z 07008KT 15/11 A3018 RMK A01 T01510113  RH  078%=      5-min Rain = 0
KWT1 260859Z 08008KT 15/11 A3018 RMK A01 T01500113  RH  078%=      5-min Rain = 0
KWT1 260900Z 08008KT 15/11 A3018 RMK A01 T01500113  RH  078%=      5-min Rain = 0
KWT1 260901Z 08007KT 15/11 A3018 RMK A01 T01490112  RH  079%=      5-min Rain = 0
KWT1 260902Z 08008KT 15/11 A3018 RMK A01 T01490113  RH  079%=      5-min Rain = 0
KWT1 260903Z 08009KT 15/11 A3018 RMK A01 T01490113  RH  079%=      5-min Rain = 0
KWT1 260904Z 08008KT 15/11 A3018 RMK A01 T01480113  RH  079%=      5-min Rain = 0
KWT1 260905Z 08008KT 15/11 A3018 RMK A01 T01480113  RH  079%=      5-min Rain = 0
KWT1 260906Z 08009KT 15/11 A3018 RMK A01 T01480112  RH  079%=      5-min Rain = 0
KWT1 260907Z 08009KT 15/11 A3018 RMK A01 T01480113  RH  079%=      5-min Rain = 0
KWT1 260908Z 08009KT 15/11 A3018 RMK A01 T01480113  RH  079%=      5-min Rain = 0
KWT1 260909Z 08010KT 15/11 A3018 RMK A01 T01480112  RH  079%=      5-min Rain = 0
KWT1 260910Z 08009KT 15/11 A3018 RMK A01 T01480112  RH  079%=      5-min Rain = 0
KWT1 260911Z 08008KT 15/11 A3018 RMK A01 T01480112  RH  079%=      5-min Rain = 0
KWT1 260912Z 08009KT 15/11 A3018 RMK A01 T01480113  RH  079%=      5-min Rain = 0
KWT1 260913Z 08009KT 15/11 A3018 RMK A01 T01470112  RH  079%=      5-min Rain = 0
KWT1 260914Z 07010KT 15/11 A3018 RMK A01 T01470112  RH  080%=      5-min Rain = 0
KWT1 260915Z 08009KT 15/11 A3018 RMK A01 T01470112  RH  080%=      5-min Rain = 0
KWT1 260916Z 08009KT 15/11 A3018 RMK A01 T01470112  RH  079%=      5-min Rain = 0
KWT1 260917Z 07008KT 15/11 A3018 RMK A01 T01470112  RH  080%=      5-min Rain = 0
KWT1 260918Z 08008KT 15/11 A3018 RMK A01 T01460112  RH  080%=      5-min Rain = 0
KWT1 260919Z 07007KT 15/11 A3018 RMK A01 T01460112  RH  080%=      5-min Rain = 0
KWT1 260920Z 07007KT 15/11 A3018 RMK A01 T01450112  RH  081%=      5-min Rain = 0
KWT1 260921Z 07007KT 15/11 A3018 RMK A01 T01450112  RH  081%=      5-min Rain = 0
KWT1 260922Z 07007KT 15/11 A3018 RMK A01 T01450112  RH  081%=      5-min Rain = 0
KWT1 260923Z 07006KT 15/11 A3018 RMK A01 T01450113  RH  081%=      5-min Rain = 0
KWT1 260924Z 07007KT 14/11 A3018 RMK A01 T01440112  RH  081%=      5-min Rain = 0
KWT1 260925Z 07006KT 14/11 A3018 RMK A01 T01440112  RH  081%=      5-min Rain = 0
KWT1 260926Z 07005KT 14/11 A3018 RMK A01 T01430112  RH  082%=      5-min Rain = 0
KWT1 260927Z 07006KT 14/11 A3018 RMK A01 T01430112  RH  082%=      5-min Rain = 0
KWT1 260928Z 07006KT 14/11 A3019 RMK A01 T01430112  RH  082%=      5-min Rain = 0
KWT1 260929Z 07006KT 14/11 A3019 RMK A01 T01430112  RH  082%=      5-min Rain = 0
KWT1 260930Z 07006KT 14/11 A3019 RMK A01 T01420112  RH  082%=      5-min Rain = 0
KWT1 260931Z 07006KT 14/11 A3019 RMK A01 T01420112  RH  082%=      5-min Rain = 0
KWT1 260932Z 07006KT 14/11 A3019 RMK A01 T01420112  RH  082%=      5-min Rain = 0
KWT1 260933Z 07006KT 14/11 A3019 RMK A01 T01420112  RH  082%=      5-min Rain = 0
KWT1 260934Z 07007KT 14/11 A3019 RMK A01 T01410112  RH  082%=      5-min Rain = 0
KWT1 260935Z 07006KT 14/11 A3019 RMK A01 T01410112  RH  083%=      5-min Rain = 0
KWT1 260936Z 07006KT 14/11 A3019 RMK A01 T01410112  RH  083%=      5-min Rain = 0
KWT1 260937Z 08006KT 14/11 A3019 RMK A01 T01410112  RH  083%=      5-min Rain = 0
KWT1 260938Z 08006KT 14/11 A3019 RMK A01 T01410112  RH  083%=      5-min Rain = 0
KWT1 260939Z 08006KT 14/11 A3019 RMK A01 T01400112  RH  083%=      5-min Rain = 0
KWT1 260940Z 07006KT 14/11 A3019 RMK A01 T01400112  RH  083%=      5-min Rain = 0
KWT1 260941Z 07005KT 14/11 A3019 RMK A01 T01390112  RH  084%=      5-min Rain = 0
KWT1 260942Z 07005KT 14/11 A3019 RMK A01 T01380112  RH  084%=      5-min Rain = 0
KWT1 260943Z 07006KT 14/11 A3019 RMK A01 T01380112  RH  084%=      5-min Rain = 0
KWT1 260944Z 07006KT 14/11 A3019 RMK A01 T01380112  RH  084%=      5-min Rain = 0
KWT1 260945Z 07006KT 14/11 A3019 RMK A01 T01380112  RH  084%=      5-min Rain = 0
KWT1 260946Z 07006KT 14/11 A3019 RMK A01 T01370111  RH  084%=      5-min Rain = 0
KWT1 260947Z 07007KT 14/11 A3019 RMK A01 T01380112  RH  084%=      5-min Rain = 0
KWT1 260948Z 07007KT 14/11 A3019 RMK A01 T01380111  RH  084%=      5-min Rain = 0
KWT1 260949Z 07007KT 14/11 A3019 RMK A01 T01380111  RH  084%=      5-min Rain = 0
KWT1 260950Z 07007KT 14/11 A3019 RMK A01 T01380111  RH  083%=      5-min Rain = 0
KWT1 260951Z 06007KT 14/11 A3019 RMK A01 T01390111  RH  083%=      5-min Rain = 0
KWT1 260952Z 06009KT 14/11 A3019 RMK A01 T01390111  RH  083%=      5-min Rain = 0
KWT1 260953Z 06008KT 14/11 A302 RMK A01 T01390111  RH  083%=      5-min Rain = 0
KWT1 260954Z 06008KT 14/11 A302 RMK A01 T01400110  RH  083%=      5-min Rain = 0
KWT1 260955Z 06008KT 14/11 A302 RMK A01 T01400110  RH  082%=      5-min Rain = 0
KWT1 260956Z 05008KT 14/11 A302 RMK A01 T01400111  RH  083%=      5-min Rain = 0
KWT1 260957Z 05008KT 14/11 A302 RMK A01 T01390111  RH  083%=      5-min Rain = 0
KWT1 260958Z 05008KT 14/11 A302 RMK A01 T01390111  RH  084%=      5-min Rain = 0
KWT1 260959Z 05008KT 14/11 A302 RMK A01 T01390112  RH  084%=      5-min Rain = 0
KWT1 261000Z 06009KT 14/11 A302 RMK A01 T01390112  RH  084%=      5-min Rain = 0
KWT1 261001Z 06009KT 14/11 A302 RMK A01 T01390111  RH  083%=      5-min Rain = 0
KWT1 261002Z 06009KT 14/11 A302 RMK A01 T01390110  RH  083%=      5-min Rain = 0
KWT1 261003Z 06009KT 14/11 A302 RMK A01 T01400110  RH  082%=      5-min Rain = 0
KWT1 261004Z 06009KT 14/11 A302 RMK A01 T01400110  RH  082%=      5-min Rain = 0
KWT1 261005Z 06010KT 14/11 A302 RMK A01 T01400109  RH  082%=      5-min Rain = 0
KWT1 261006Z 06010KT 14/11 A302 RMK A01 T01400109  RH  081%=      5-min Rain = 0
KWT1 261007Z 06009KT 14/11 A302 RMK A01 T01410108  RH  081%=      5-min Rain = 0
KWT1 261008Z 06011KT 14/11 A302 RMK A01 T01410108  RH  080%=      5-min Rain = 0
KWT1 261009Z 06010KT 14/11 A302 RMK A01 T01420107  RH  079%=      5-min Rain = 0
KWT1 261010Z 06010KT 14/11 A302 RMK A01 T01420107  RH  079%=      5-min Rain = 0
KWT1 261011Z 06011KT 14/11 A302 RMK A01 T01430107  RH  079%=      5-min Rain = 0
KWT1 261012Z 06010KT 14/11 A302 RMK A01 T01430106  RH  078%=      5-min Rain = 0
KWT1 261013Z 06011KT 14/11 A302 RMK A01 T01430106  RH  078%=      5-min Rain = 0
KWT1 261014Z 06010KT 14/11 A302 RMK A01 T01430105  RH  078%=      5-min Rain = 0
KWT1 261015Z 06012KT 14/10 A302 RMK A01 T01440104  RH  077%=      5-min Rain = 0
KWT1 261016Z 06012KT 14/10 A302 RMK A01 T01440103  RH  077%=      5-min Rain = 0
KWT1 261017Z 06011KT 14/10 A302 RMK A01 T01440103  RH  076%=      5-min Rain = 0
KWT1 261018Z 06010KT 14/10 A302 RMK A01 T01440103  RH  076%=      5-min Rain = 0
KWT1 261019Z 06011KT 14/10 A302 RMK A01 T01440103  RH  076%=      5-min Rain = 0
KWT1 261020Z 06009KT 14/10 A302 RMK A01 T01440103  RH  076%=      5-min Rain = 0
KWT1 261021Z 06010KT 14/10 A302 RMK A01 T01440103  RH  076%=      5-min Rain = 0
KWT1 261022Z 06012KT 14/10 A302 RMK A01 T01440104  RH  077%=      5-min Rain = 0
KWT1 261023Z 06011KT 14/10 A302 RMK A01 T01440103  RH  076%=      5-min Rain = 0
KWT1 261024Z 06013KT 14/10 A302 RMK A01 T01440104  RH  076%=      5-min Rain = 0
KWT1 261025Z 06012KT 15/10 A302 RMK A01 T01450103  RH  076%=      5-min Rain = 0
KWT1 261026Z 06009KT 15/10 A302 RMK A01 T01450103  RH  076%=      5-min Rain = 0
KWT1 261027Z 05011KT 15/10 A302 RMK A01 T01450104  RH  076%=      5-min Rain = 0
KWT1 261028Z 06013KT 14/10 A302 RMK A01 T01440104  RH  076%=      5-min Rain = 0
KWT1 261029Z 06010KT 14/10 A302 RMK A01 T01440103  RH  076%=      5-min Rain = 0
KWT1 261030Z 06012KT 14/10 A302 RMK A01 T01440103  RH  076%=      5-min Rain = 0
KWT1 261031Z 06013KT 14/10 A302 RMK A01 T01440103  RH  076%=      5-min Rain = 0
KWT1 261032Z 06011KT 14/10 A302 RMK A01 T01440102  RH  076%=      5-min Rain = 0
KWT1 261033Z 06011KT 14/10 A302 RMK A01 T01440102  RH  076%=      5-min Rain = 0
KWT1 261034Z 06011KT 15/10 A302 RMK A01 T01450101  RH  075%=      5-min Rain = 0
KWT1 261035Z 06011KT 15/10 A302 RMK A01 T01450100  RH  075%=      5-min Rain = 0
KWT1 261036Z 06010KT 15/10 A302 RMK A01 T01450100  RH  074%=      5-min Rain = 0
KWT1 261037Z 06012KT 15/10 A302 RMK A01 T01450100  RH  074%=      5-min Rain = 0
KWT1 261038Z 06012KT 15/10 A302 RMK A01 T01450100  RH  074%=      5-min Rain = 0
KWT1 261039Z 06010KT 15/10 A302 RMK A01 T01460100  RH  074%=      5-min Rain = 0
KWT1 261040Z 07010KT 15/10 A302 RMK A01 T01460099  RH  074%=      5-min Rain = 0
KWT1 261041Z 06011KT 15/10 A302 RMK A01 T01460099  RH  073%=      5-min Rain = 0
KWT1 261042Z 06010KT 15/10 A302 RMK A01 T01460098  RH  073%=      5-min Rain = 0
KWT1 261043Z 07011KT 15/10 A302 RMK A01 T01460098  RH  073%=      5-min Rain = 0
KWT1 261044Z 07014KT 15/10 A302 RMK A01 T01460098  RH  073%=      5-min Rain = 0
KWT1 261045Z 07011KT 15/10 A302 RMK A01 T01470098  RH  072%=      5-min Rain = 0
KWT1 261046Z 07010KT 15/10 A302 RMK A01 T01480099  RH  072%=      5-min Rain = 0
KWT1 261047Z 07011KT 15/10 A302 RMK A01 T01470099  RH  073%=      5-min Rain = 0
KWT1 261048Z 07009KT 15/10 A302 RMK A01 T01460099  RH  073%=      5-min Rain = 0
KWT1 261049Z 07013KT 15/10 A302 RMK A01 T01460099  RH  073%=      5-min Rain = 0
KWT1 261050Z 07013KT 15/10 A302 RMK A01 T01460098  RH  073%=      5-min Rain = 0
KWT1 261051Z 07013KT 15/10 A302 RMK A01 T01470099  RH  073%=      5-min Rain = 0
KWT1 261052Z 07013KT 15/10 A302 RMK A01 T01470099  RH  073%=      5-min Rain = 0
KWT1 261053Z 07012KT 15/10 A302 RMK A01 T01470099  RH  073%=      5-min Rain = 0
KWT1 261054Z 06011KT 15/10 A302 RMK A01 T01460099  RH  073%=      5-min Rain = 0
KWT1 261055Z 07011KT 15/10 A302 RMK A01 T01450099  RH  074%=      5-min Rain = 0
KWT1 261056Z 07013KT 15/10 A302 RMK A01 T01450099  RH  074%=      5-min Rain = 0
KWT1 261057Z 07010KT 15/10 A302 RMK A01 T01450099  RH  074%=      5-min Rain = 0
KWT1 261058Z 07011KT 15/10 A3021 RMK A01 T01450099  RH  074%=      5-min Rain = 0
KWT1 261059Z 07012KT 14/10 A302 RMK A01 T01440099  RH  074%=      5-min Rain = 0
KWT1 261100Z 07012KT 14/10 A302 RMK A01 T01440099  RH  074%=      5-min Rain = 0
KWT1 261101Z 07013G18KT 14/10 A302 RMK A01 T01440099  RH  074%=      5-min Rain = 0
KWT1 261102Z 06011KT 15/10 A302 RMK A01 T01450099  RH  074%=      5-min Rain = 0
KWT1 261103Z 07014KT 14/10 A302 RMK A01 T01440099  RH  074%=      5-min Rain = 0
KWT1 261104Z 06012KT 15/10 A302 RMK A01 T01450098  RH  074%=      5-min Rain = 0
KWT1 261105Z 06013KT 15/10 A302 RMK A01 T01450098  RH  073%=      5-min Rain = 0
KWT1 261106Z 07012KT 15/10 A302 RMK A01 T01450098  RH  073%=      5-min Rain = 0
KWT1 261107Z 06013KT 15/10 A3021 RMK A01 T01450098  RH  073%=      5-min Rain = 0
KWT1 261108Z 07009KT 15/10 A3021 RMK A01 T01450099  RH  074%=      5-min Rain = 0
KWT1 261109Z 07011G16KT 14/10 A3021 RMK A01 T01440099  RH  075%=      5-min Rain = 0
KWT1 261110Z 07011KT 14/10 A3021 RMK A01 T01430099  RH  075%=      5-min Rain = 0
KWT1 261111Z 07011KT 14/10 A3021 RMK A01 T01430099  RH  075%=      5-min Rain = 0
KWT1 261112Z 07013KT 14/10 A3021 RMK A01 T01430099  RH  075%=      5-min Rain = 0
KWT1 261113Z 07010KT 14/10 A3021 RMK A01 T01430100  RH  075%=      5-min Rain = 0
KWT1 261114Z 07010KT 14/10 A3021 RMK A01 T01430099  RH  075%=      5-min Rain = 0
KWT1 261115Z 06011KT 14/10 A3021 RMK A01 T01420100  RH  075%=      5-min Rain = 0
KWT1 261116Z 07011KT 14/10 A3021 RMK A01 T01420099  RH  075%=      5-min Rain = 0
KWT1 261117Z 07011KT 14/10 A3021 RMK A01 T01420099  RH  075%=      5-min Rain = 0
KWT1 261118Z 07012KT 14/10 A3021 RMK A01 T01420099  RH  075%=      5-min Rain = 0
KWT1 261119Z 07012KT 14/10 A3021 RMK A01 T01420099  RH  075%=      5-min Rain = 0
KWT1 261120Z 06012KT 14/10 A3021 RMK A01 T01420099  RH  075%=      5-min Rain = 0
KWT1 261121Z 07011KT 14/10 A3021 RMK A01 T01420098  RH  075%=      5-min Rain = 0
KWT1 261122Z 07013KT 14/10 A3021 RMK A01 T01420097  RH  074%=      5-min Rain = 0
KWT1 261123Z 07014KT 14/10 A3021 RMK A01 T01430097  RH  074%=      5-min Rain = 0
KWT1 261124Z 08012KT 14/10 A3021 RMK A01 T01430097  RH  074%=      5-min Rain = 0
KWT1 261125Z 07011KT 14/10 A302 RMK A01 T01430097  RH  074%=      5-min Rain = 0
KWT1 261126Z 07011KT 14/10 A3021 RMK A01 T01430097  RH  074%=      5-min Rain = 0
KWT1 261127Z 07012G18KT 14/10 A3021 RMK A01 T01420096  RH  074%=      5-min Rain = 0
KWT1 261128Z 08012KT 14/10 A3021 RMK A01 T01430095  RH  073%=      5-min Rain = 0
KWT1 261129Z 07010KT 14/10 A302 RMK A01 T01430096  RH  073%=      5-min Rain = 0
KWT1 261130Z 08010KT 14/10 A302 RMK A01 T01430096  RH  073%=      5-min Rain = 0
KWT1 261131Z 07013KT 14/10 A3021 RMK A01 T01430096  RH  073%=      5-min Rain = 0
KWT1 261132Z 07011KT 14/10 A3021 RMK A01 T01430095  RH  073%=      5-min Rain = 0
KWT1 261133Z 08012KT 14/10 A3021 RMK A01 T01430095  RH  073%=      5-min Rain = 0
KWT1 261134Z 07010KT 14/09 A3021 RMK A01 T01440094  RH  072%=      5-min Rain = 0
KWT1 261135Z 07013KT 14/10 A3021 RMK A01 T01440095  RH  072%=      5-min Rain = 0
KWT1 261136Z 07011KT 14/09 A3021 RMK A01 T01440094  RH  072%=      5-min Rain = 0
KWT1 261137Z 07012KT 14/09 A3021 RMK A01 T01440094  RH  072%=      5-min Rain = 0
KWT1 261138Z 07012KT 14/09 A3021 RMK A01 T01440094  RH  072%=      5-min Rain = 0
KWT1 261139Z 07011KT 14/09 A3021 RMK A01 T01440093  RH  072%=      5-min Rain = 0
KWT1 261140Z 07011KT 14/09 A3021 RMK A01 T01440094  RH  072%=      5-min Rain = 0
KWT1 261141Z 07012KT 14/09 A3021 RMK A01 T01440094  RH  072%=      5-min Rain = 0
KWT1 261142Z 08011KT 14/09 A3021 RMK A01 T01440093  RH  071%=      5-min Rain = 0
KWT1 261143Z 07011KT 14/09 A3022 RMK A01 T01440092  RH  071%=      5-min Rain = 0
KWT1 261144Z 08010KT 14/09 A3022 RMK A01 T01440092  RH  071%=      5-min Rain = 0
KWT1 261145Z 08009KT 15/09 A3022 RMK A01 T01450092  RH  071%=      5-min Rain = 0
KWT1 261146Z 08009KT 14/09 A3022 RMK A01 T01440093  RH  071%=      5-min Rain = 0
KWT1 261147Z 08010KT 14/09 A3022 RMK A01 T01440092  RH  071%=      5-min Rain = 0
KWT1 261148Z 07009KT 14/09 A3022 RMK A01 T01430092  RH  071%=      5-min Rain = 0
KWT1 261149Z 08009KT 14/09 A3022 RMK A01 T01430092  RH  071%=      5-min Rain = 0
KWT1 261150Z 08010KT 14/09 A3022 RMK A01 T01430091  RH  071%=      5-min Rain = 0
KWT1 261151Z 08011KT 14/09 A3022 RMK A01 T01440090  RH  070%=      5-min Rain = 0
KWT1 261152Z 09009KT 14/09 A3022 RMK A01 T01440090  RH  070%=      5-min Rain = 0
KWT1 261153Z 08010KT 14/09 A3022 RMK A01 T01440091  RH  070%=      5-min Rain = 0
KWT1 261154Z 07007KT 14/09 A3023 RMK A01 T01440091  RH  070%=      5-min Rain = 0
KWT1 261155Z 08009KT 14/09 A3023 RMK A01 T01440091  RH  071%=      5-min Rain = 0
KWT1 261156Z 07007KT 14/09 A3023 RMK A01 T01440091  RH  070%=      5-min Rain = 0
KWT1 261157Z 08008KT 14/09 A3023 RMK A01 T01440091  RH  070%=      5-min Rain = 0
KWT1 261158Z 07007KT 14/09 A3023 RMK A01 T01440091  RH  071%=      5-min Rain = 0
KWT1 261159Z 08008KT 14/09 A3023 RMK A01 T01440092  RH  071%=      5-min Rain = 0
KWT1 261200Z 07008KT 14/09 A3023 RMK A01 T01440091  RH  071%=      5-min Rain = 0
KWT1 261201Z 08009KT 14/09 A3023 RMK A01 T01440091  RH  070%=      5-min Rain = 0
KWT1 261202Z 08007KT 14/09 A3023 RMK A01 T01440090  RH  070%=      5-min Rain = 0
KWT1 261203Z 08008KT 14/09 A3023 RMK A01 T01440091  RH  071%=      5-min Rain = 0
KWT1 261204Z 08007KT 14/09 A3023 RMK A01 T01440091  RH  070%=      5-min Rain = 0
KWT1 261205Z 08007KT 14/09 A3023 RMK A01 T01440091  RH  070%=      5-min Rain = 0
KWT1 261206Z 08008KT 14/09 A3023 RMK A01 T01440091  RH  071%=      5-min Rain = 0
KWT1 261207Z 08008KT 14/09 A3023 RMK A01 T01440090  RH  070%=      5-min Rain = 0
KWT1 261208Z 09008KT 14/09 A3023 RMK A01 T01440090  RH  070%=      5-min Rain = 0
KWT1 261209Z 08009KT 14/09 A3023 RMK A01 T01440090  RH  070%=      5-min Rain = 0
KWT1 261210Z 08009KT 14/09 A3023 RMK A01 T01440088  RH  069%=      5-min Rain = 0
KWT1 261211Z 09009KT 15/09 A3023 RMK A01 T01450089  RH  069%=      5-min Rain = 0
KWT1 261212Z 09009KT 14/09 A3023 RMK A01 T01440088  RH  069%=      5-min Rain = 0
KWT1 261213Z 08010KT 15/09 A3023 RMK A01 T01450087  RH  068%=      5-min Rain = 0
KWT1 261214Z 08011KT 15/09 A3023 RMK A01 T01450086  RH  068%=      5-min Rain = 0
KWT1 261215Z 08010KT 15/09 A3023 RMK A01 T01450085  RH  067%=      5-min Rain = 0
KWT1 261216Z 08010KT 15/08 A3023 RMK A01 T01460084  RH  067%=      5-min Rain = 0
KWT1 261217Z 08010KT 15/09 A3023 RMK A01 T01460085  RH  067%=      5-min Rain = 0
KWT1 261218Z 08009KT 15/08 A3023 RMK A01 T01460084  RH  066%=      5-min Rain = 0
KWT1 261219Z 08010KT 15/09 A3023 RMK A01 T01460085  RH  067%=      5-min Rain = 0
KWT1 261220Z 08011KT 15/08 A3024 RMK A01 T01450084  RH  067%=      5-min Rain = 0
KWT1 261221Z 08012KT 15/08 A3024 RMK A01 T01450083  RH  066%=      5-min Rain = 0
KWT1 261222Z 08012KT 15/08 A3024 RMK A01 T01450083  RH  066%=      5-min Rain = 0
KWT1 261223Z 08012KT 15/08 A3024 RMK A01 T01450083  RH  066%=      5-min Rain = 0
KWT1 261224Z 08012G17KT 15/08 A3024 RMK A01 T01450084  RH  067%=      5-min Rain = 0
KWT1 261225Z 08012KT 15/08 A3024 RMK A01 T01450084  RH  067%=      5-min Rain = 0
KWT1 261226Z 07011KT 15/09 A3024 RMK A01 T01450085  RH  067%=      5-min Rain = 0
KWT1 261227Z 07012KT 15/09 A3024 RMK A01 T01450085  RH  067%=      5-min Rain = 0
KWT1 261228Z 07011KT 14/09 A3024 RMK A01 T01440086  RH  068%=      5-min Rain = 0
KWT1 261229Z 07010KT 14/09 A3024 RMK A01 T01440087  RH  069%=      5-min Rain = 0
KWT1 261230Z 07012KT 14/09 A3024 RMK A01 T01430087  RH  069%=      5-min Rain = 0
KWT1 261231Z 07010KT 14/09 A3024 RMK A01 T01430087  RH  069%=      5-min Rain = 0
KWT1 261232Z 08010KT 14/09 A3024 RMK A01 T01430087  RH  069%=      5-min Rain = 0
KWT1 261233Z 08010KT 14/09 A3024 RMK A01 T01430088  RH  070%=      5-min Rain = 0
KWT1 261234Z 08010KT 14/09 A3024 RMK A01 T01430088  RH  070%=      5-min Rain = 0
KWT1 261235Z 07010KT 14/09 A3024 RMK A01 T01430089  RH  070%=      5-min Rain = 0
KWT1 261236Z 08010KT 14/09 A3024 RMK A01 T01420089  RH  070%=      5-min Rain = 0
KWT1 261237Z 07011KT 14/09 A3024 RMK A01 T01430088  RH  070%=      5-min Rain = 0
KWT1 261238Z 08009KT 14/09 A3024 RMK A01 T01430087  RH  069%=      5-min Rain = 0
KWT1 261239Z 08010KT 14/09 A3024 RMK A01 T01430089  RH  070%=      5-min Rain = 0
KWT1 261240Z 08011KT 14/09 A3024 RMK A01 T01430089  RH  070%=      5-min Rain = 0
KWT1 261241Z 08010KT 14/09 A3024 RMK A01 T01420088  RH  070%=      5-min Rain = 0
KWT1 261242Z 08011KT 14/09 A3024 RMK A01 T01430088  RH  069%=      5-min Rain = 0
KWT1 261243Z 08009KT 14/09 A3024 RMK A01 T01430089  RH  070%=      5-min Rain = 0
KWT1 261244Z 08009KT 14/09 A3024 RMK A01 T01430090  RH  071%=      5-min Rain = 0
KWT1 261245Z 08012KT 14/09 A3024 RMK A01 T01430089  RH  070%=      5-min Rain = 0
KWT1 261246Z 08011KT 14/09 A3024 RMK A01 T01430088  RH  069%=      5-min Rain = 0
KWT1 261247Z 08010KT 14/09 A3024 RMK A01 T01440088  RH  069%=      5-min Rain = 0
KWT1 261248Z 08010KT 14/09 A3024 RMK A01 T01440090  RH  070%=      5-min Rain = 0
KWT1 261249Z 08010G15KT 14/09 A3024 RMK A01 T01440090  RH  070%=      5-min Rain = 0
KWT1 261250Z 08010KT 14/09 A3024 RMK A01 T01440090  RH  070%=      5-min Rain = 0
KWT1 261251Z 08011KT 15/09 A3024 RMK A01 T01450089  RH  069%=      5-min Rain = 0
KWT1 261252Z 08010KT 15/09 A3024 RMK A01 T01450090  RH  070%=      5-min Rain = 0
KWT1 261253Z 07012KT 15/09 A3025 RMK A01 T01450089  RH  069%=      5-min Rain = 0
KWT1 261254Z 08011KT 15/09 A3025 RMK A01 T01450088  RH  068%=      5-min Rain = 0
KWT1 261255Z 08011KT 15/09 A3025 RMK A01 T01450089  RH  069%=      5-min Rain = 0
KWT1 261256Z 08011KT 15/09 A3025 RMK A01 T01460088  RH  069%=      5-min Rain = 0
KWT1 261257Z 09010KT 15/09 A3025 RMK A01 T01460089  RH  069%=      5-min Rain = 0
KWT1 261258Z 08010KT 15/09 A3025 RMK A01 T01460090  RH  069%=      5-min Rain = 0
KWT1 261259Z 08009KT 15/09 A3025 RMK A01 T01470091  RH  069%=      5-min Rain = 0
KWT1 261300Z 09009KT 15/09 A3025 RMK A01 T01480092  RH  069%=      5-min Rain = 0
KWT1 261301Z 08009KT 15/09 A3025 RMK A01 T01480091  RH  069%=      5-min Rain = 0
KWT1 261302Z 08009KT 15/09 A3025 RMK A01 T01490091  RH  068%=      5-min Rain = 0
KWT1 261303Z 08010KT 15/09 A3025 RMK A01 T01490090  RH  068%=      5-min Rain = 0
KWT1 261304Z 09011KT 15/09 A3025 RMK A01 T01490090  RH  068%=      5-min Rain = 0
KWT1 261305Z 09010KT 15/09 A3025 RMK A01 T01480090  RH  068%=      5-min Rain = 0
KWT1 261306Z 08011KT 15/09 A3025 RMK A01 T01470090  RH  068%=      5-min Rain = 0
KWT1 261307Z 09011KT 15/09 A3025 RMK A01 T01480089  RH  068%=      5-min Rain = 0
KWT1 261308Z 08011KT 15/09 A3025 RMK A01 T01480089  RH  068%=      5-min Rain = 0
KWT1 261309Z 09011KT 15/09 A3025 RMK A01 T01480088  RH  067%=      5-min Rain = 0
KWT1 261310Z 09011KT 15/09 A3025 RMK A01 T01490089  RH  067%=      5-min Rain = 0
KWT1 261311Z 09011KT 15/09 A3026 RMK A01 T01480087  RH  067%=      5-min Rain = 0
KWT1 261312Z 08010KT 15/09 A3026 RMK A01 T01490088  RH  067%=      5-min Rain = 0
KWT1 261313Z 09010KT 15/09 A3026 RMK A01 T01480088  RH  067%=      5-min Rain = 0
KWT1 261314Z 09009KT 15/09 A3026 RMK A01 T01470087  RH  067%=      5-min Rain = 0
KWT1 261315Z 08008KT 15/09 A3026 RMK A01 T01470087  RH  067%=      5-min Rain = 0
KWT1 261316Z 08009KT 15/09 A3026 RMK A01 T01470087  RH  067%=      5-min Rain = 0
KWT1 261317Z 08008KT 15/09 A3027 RMK A01 T01480087  RH  067%=      5-min Rain = 0
KWT1 261318Z 08007KT 15/09 A3027 RMK A01 T01480088  RH  067%=      5-min Rain = 0
KWT1 261319Z 07010KT 15/09 A3027 RMK A01 T01490087  RH  067%=      5-min Rain = 0
KWT1 261320Z 06009KT 15/09 A3027 RMK A01 T01490086  RH  066%=      5-min Rain = 0
KWT1 261321Z 07009KT 15/09 A3027 RMK A01 T01490087  RH  066%=      5-min Rain = 0
KWT1 261322Z 06011KT 15/09 A3027 RMK A01 T01480086  RH  066%=      5-min Rain = 0
KWT1 261323Z 06010KT 15/08 A3027 RMK A01 T01470083  RH  065%=      5-min Rain = 0
KWT1 261324Z 06008KT 15/09 A3027 RMK A01 T01470085  RH  066%=      5-min Rain = 0
KWT1 261325Z 07009KT 15/09 A3027 RMK A01 T01470086  RH  067%=      5-min Rain = 0
KWT1 261326Z 06007KT 15/09 A3027 RMK A01 T01460086  RH  067%=      5-min Rain = 0
KWT1 261327Z 06008KT 15/09 A3027 RMK A01 T01460088  RH  068%=      5-min Rain = 0
KWT1 261328Z 07009KT 15/09 A3027 RMK A01 T01450088  RH  069%=      5-min Rain = 0
KWT1 261329Z 07009KT 14/09 A3027 RMK A01 T01440086  RH  068%=      5-min Rain = 0
KWT1 261330Z 07009KT 15/09 A3027 RMK A01 T01450086  RH  068%=      5-min Rain = 0
KWT1 261331Z 08010KT 14/09 A3027 RMK A01 T01440085  RH  067%=      5-min Rain = 0
KWT1 261332Z 07010KT 14/08 A3027 RMK A01 T01440084  RH  067%=      5-min Rain = 0
KWT1 261333Z 07010KT 15/08 A3027 RMK A01 T01450082  RH  066%=      5-min Rain = 0
KWT1 261334Z 08011KT 15/08 A3027 RMK A01 T01460084  RH  066%=      5-min Rain = 0
KWT1 261335Z 08013KT 15/08 A3026 RMK A01 T01470080  RH  064%=      5-min Rain = 0
KWT1 261336Z 08011KT 15/08 A3026 RMK A01 T01480080  RH  063%=      5-min Rain = 0
KWT1 261337Z 08010KT 15/08 A3026 RMK A01 T01480081  RH  064%=      5-min Rain = 0
KWT1 261338Z 08011KT 15/08 A3026 RMK A01 T01480080  RH  064%=      5-min Rain = 0
KWT1 261339Z 08013KT 15/08 A3026 RMK A01 T01470077  RH  063%=      5-min Rain = 0
KWT1 261340Z 08012KT 15/08 A3026 RMK A01 T01470076  RH  062%=      5-min Rain = 0
KWT1 261341Z 08010KT 15/08 A3026 RMK A01 T01470077  RH  063%=      5-min Rain = 0
KWT1 261342Z 08009KT 15/08 A3026 RMK A01 T01470078  RH  064%=      5-min Rain = 0
KWT1 261343Z 08010KT 15/08 A3026 RMK A01 T01460079  RH  064%=      5-min Rain = 0
KWT1 261344Z 08011KT 15/08 A3026 RMK A01 T01460078  RH  063%=      5-min Rain = 0
KWT1 261345Z 08009KT 15/08 A3026 RMK A01 T01470078  RH  063%=      5-min Rain = 0
KWT1 261346Z 08010KT 15/08 A3026 RMK A01 T01480081  RH  064%=      5-min Rain = 0
KWT1 261347Z 09012KT 15/08 A3026 RMK A01 T01490078  RH  062%=      5-min Rain = 0
KWT1 261348Z 07009KT 15/08 A3026 RMK A01 T01490077  RH  062%=      5-min Rain = 0
KWT1 261349Z 08010KT 15/08 A3026 RMK A01 T01490079  RH  063%=      5-min Rain = 0
KWT1 261350Z 08012KT 15/08 A3026 RMK A01 T01480076  RH  062%=      5-min Rain = 0
KWT1 261351Z 07011KT 15/08 A3026 RMK A01 T01480075  RH  062%=      5-min Rain = 0
KWT1 261352Z 08010KT 15/08 A3026 RMK A01 T01470077  RH  063%=      5-min Rain = 0
KWT1 261353Z 08009KT 15/08 A3026 RMK A01 T01470077  RH  063%=      5-min Rain = 0
KWT1 261354Z 08010KT 15/08 A3026 RMK A01 T01480078  RH  063%=      5-min Rain = 0
KWT1 261355Z 09010KT 15/08 A3026 RMK A01 T01500078  RH  062%=      5-min Rain = 0
KWT1 261356Z 09011KT 15/08 A3026 RMK A01 T01510080  RH  062%=      5-min Rain = 0
KWT1 261357Z 09010KT 15/08 A3026 RMK A01 T01520079  RH  062%=      5-min Rain = 0
KWT1 261358Z 09009KT 15/08 A3026 RMK A01 T01530082  RH  063%=      5-min Rain = 0
KWT1 261359Z 08011KT 16/08 A3026 RMK A01 T01550081  RH  061%=      5-min Rain = 0
KWT1 261400Z 08011KT 16/08 A3026 RMK A01 T01550080  RH  061%=      5-min Rain = 0
KWT1 261401Z 08012KT 15/08 A3026 RMK A01 T01540081  RH  061%=      5-min Rain = 0
KWT1 261402Z 08011KT 16/08 A3026 RMK A01 T01550081  RH  062%=      5-min Rain = 0
KWT1 261403Z 08011KT 16/08 A3026 RMK A01 T01550080  RH  061%=      5-min Rain = 0
KWT1 261404Z 08008KT 16/08 A3026 RMK A01 T01550083  RH  062%=      5-min Rain = 0
KWT1 261405Z 08012KT 16/09 A3026 RMK A01 T01570085  RH  062%=      5-min Rain = 0
KWT1 261406Z 09010KT 16/08 A3026 RMK A01 T01570083  RH  061%=      5-min Rain = 0
KWT1 261407Z 08010KT 16/09 A3025 RMK A01 T01570085  RH  062%=      5-min Rain = 0
KWT1 261408Z 09009G14KT 16/09 A3025 RMK A01 T01570086  RH  062%=      5-min Rain = 0
KWT1 261409Z 09012KT 16/08 A3025 RMK A01 T01580084  RH  061%=      5-min Rain = 0
KWT1 261410Z 09012KT 16/08 A3025 RMK A01 T01570084  RH  062%=      5-min Rain = 0
KWT1 261411Z 09012KT 16/08 A3025 RMK A01 T01570084  RH  062%=      5-min Rain = 0
KWT1 261412Z 09011KT 16/08 A3025 RMK A01 T01580084  RH  062%=      5-min Rain = 0
KWT1 261413Z 09013KT 16/09 A3025 RMK A01 T01580085  RH  062%=      5-min Rain = 0
KWT1 261414Z 08012KT 16/08 A3025 RMK A01 T01580083  RH  061%=      5-min Rain = 0
KWT1 261415Z 09011KT 16/09 A3025 RMK A01 T01580085  RH  062%=      5-min Rain = 0
KWT1 261416Z 09011G16KT 16/09 A3026 RMK A01 T01590085  RH  061%=      5-min Rain = 0
KWT1 261417Z 10014KT 16/08 A3026 RMK A01 T01590082  RH  060%=      5-min Rain = 0
KWT1 261418Z 10013KT 16/08 A3026 RMK A01 T01590083  RH  061%=      5-min Rain = 0
KWT1 261419Z 10011KT 16/08 A3025 RMK A01 T01590084  RH  061%=      5-min Rain = 0
KWT1 261420Z 09010KT 16/09 A3025 RMK A01 T01590088  RH  062%=      5-min Rain = 0
KWT1 261421Z 09012KT 16/09 A3025 RMK A01 T01610087  RH  062%=      5-min Rain = 0
KWT1 261422Z 09015KT 16/08 A3025 RMK A01 T01620080  RH  058%=      5-min Rain = 0
KWT1 261423Z 09013G18KT 16/08 A3025 RMK A01 T01610082  RH  060%=      5-min Rain = 0
KWT1 261424Z 09015KT 16/08 A3025 RMK A01 T01600079  RH  059%=      5-min Rain = 0
KWT1 261425Z 09014KT 16/08 A3025 RMK A01 T01600080  RH  059%=      5-min Rain = 0
KWT1 261426Z 10015KT 16/08 A3025 RMK A01 T01600081  RH  059%=      5-min Rain = 0
KWT1 261427Z 10016KT 16/08 A3025 RMK A01 T01610076  RH  057%=      5-min Rain = 0
KWT1 261428Z 09014KT 16/08 A3026 RMK A01 T01610079  RH  058%=      5-min Rain = 0
KWT1 261429Z 09013KT 16/08 A3026 RMK A01 T01620080  RH  058%=      5-min Rain = 0
KWT1 261430Z 10013KT 16/08 A3026 RMK A01 T01630079  RH  058%=      5-min Rain = 0
KWT1 261431Z 10011KT 16/08 A3026 RMK A01 T01640083  RH  058%=      5-min Rain = 0
KWT1 261432Z 09013KT 17/08 A3026 RMK A01 T01660084  RH  058%=      5-min Rain = 0
KWT1 261433Z 09013KT 17/08 A3026 RMK A01 T01670077  RH  055%=      5-min Rain = 0
KWT1 261434Z 10011G17KT 17/08 A3026 RMK A01 T01670079  RH  056%=      5-min Rain = 0
KWT1 261435Z 09015KT 17/08 A3026 RMK A01 T01670075  RH  055%=      5-min Rain = 0
KWT1 261436Z 10013KT 17/07 A3026 RMK A01 T01670074  RH  054%=      5-min Rain = 0
KWT1 261437Z 09016KT 17/07 A3026 RMK A01 T01680074  RH  054%=      5-min Rain = 0
KWT1 261438Z 09013KT 17/07 A3026 RMK A01 T01680069  RH  052%=      5-min Rain = 0
KWT1 261439Z 09015KT 17/07 A3026 RMK A01 T01690074  RH  054%=      5-min Rain = 0
KWT1 261440Z 09014KT 17/07 A3026 RMK A01 T01700069  RH  051%=      5-min Rain = 0
KWT1 261441Z 10014KT 17/07 A3026 RMK A01 T01710072  RH  052%=      5-min Rain = 0
KWT1 261442Z 10013G19KT 17/07 A3026 RMK A01 T01710069  RH  051%=      5-min Rain = 0
KWT1 261443Z 10012KT 17/07 A3026 RMK A01 T01710073  RH  052%=      5-min Rain = 0
KWT1 261444Z 09015KT 17/07 A3026 RMK A01 T01710070  RH  051%=      5-min Rain = 0
KWT1 261445Z 09012KT 17/07 A3026 RMK A01 T01680065  RH  051%=      5-min Rain = 0
KWT1 261446Z 09012KT 17/07 A3026 RMK A01 T01670070  RH  053%=      5-min Rain = 0
KWT1 261447Z 09014KT 17/07 A3026 RMK A01 T01670070  RH  053%=      5-min Rain = 0
KWT1 261448Z 10013KT 17/07 A3026 RMK A01 T01660067  RH  052%=      5-min Rain = 0
KWT1 261449Z 09014KT 17/07 A3026 RMK A01 T01660067  RH  052%=      5-min Rain = 0
KWT1 261450Z 09013KT 17/06 A3026 RMK A01 T01650062  RH  051%=      5-min Rain = 0
KWT1 261451Z 09011KT 17/07 A3026 RMK A01 T01660065  RH  051%=      5-min Rain = 0
KWT1 261452Z 09013KT 17/07 A3026 RMK A01 T01660069  RH  053%=      5-min Rain = 0
KWT1 261453Z 09015KT 17/06 A3027 RMK A01 T01650062  RH  050%=      5-min Rain = 0
KWT1 261454Z 08014KT 17/06 A3027 RMK A01 T01660062  RH  050%=      5-min Rain = 0
KWT1 261455Z 09015KT 17/06 A3027 RMK A01 T01650060  RH  050%=      5-min Rain = 0
KWT1 261456Z 09012KT 17/06 A3027 RMK A01 T01650059  RH  049%=      5-min Rain = 0
KWT1 261457Z 09012KT 17/07 A3027 RMK A01 T01660066  RH  052%=      5-min Rain = 0
KWT1 261458Z 09014KT 17/06 A3027 RMK A01 T01660064  RH  051%=      5-min Rain = 0
KWT1 261459Z 09014KT 17/06 A3027 RMK A01 T01660061  RH  050%=      5-min Rain = 0
KWT1 261500Z 08012KT 17/06 A3027 RMK A01 T01660063  RH  051%=      5-min Rain = 0
KWT1 261501Z 08010KT 17/06 A3028 RMK A01 T01650064  RH  051%=      5-min Rain = 0
KWT1 261502Z 08011KT 17/07 A3028 RMK A01 T01660065  RH  051%=      5-min Rain = 0
KWT1 261503Z 07012KT 17/06 A3028 RMK A01 T01660059  RH  049%=      5-min Rain = 0
KWT1 261504Z 08011KT 17/06 A3028 RMK A01 T01660059  RH  049%=      5-min Rain = 0
KWT1 261505Z 07013KT 17/06 A3028 RMK A01 T01660055  RH  048%=      5-min Rain = 0
KWT1 261506Z 07009KT 17/06 A3029 RMK A01 T01660057  RH  049%=      5-min Rain = 0
KWT1 261507Z 06011KT 17/06 A3029 RMK A01 T01650059  RH  049%=      5-min Rain = 0
KWT1 261508Z 04010KT 17/06 A303 RMK A01 T01650060  RH  050%=      5-min Rain = 0
KWT1 261509Z 03012KT 16/07 A303 RMK A01 T01640065  RH  052%=      5-min Rain = 0
KWT1 261510Z 02011KT 16/06 A3031 RMK A01 T01630064  RH  052%=      5-min Rain = 0
KWT1 261511Z 02012KT 16/06 A3031 RMK A01 T01620064  RH  052%=      5-min Rain = 0
KWT1 261512Z 02011KT 16/06 A3031 RMK A01 T01620064  RH  052%=      5-min Rain = 0
KWT1 261513Z 03010KT 16/06 A3031 RMK A01 T01610064  RH  053%=      5-min Rain = 0
KWT1 261514Z 05009KT 16/06 A303 RMK A01 T01610063  RH  052%=      5-min Rain = 0
KWT1 261515Z 06007KT 16/07 A303 RMK A01 T01610066  RH  053%=      5-min Rain = 0
KWT1 261516Z 06007KT 16/07 A3029 RMK A01 T01610066  RH  053%=      5-min Rain = 0
KWT1 261517Z 05009KT 16/06 A3029 RMK A01 T01620061  RH  051%=      5-min Rain = 0
KWT1 261518Z 04009KT 16/07 A303 RMK A01 T01620066  RH  053%=      5-min Rain = 0
KWT1 261519Z 04011KT 16/07 A303 RMK A01 T01620065  RH  052%=      5-min Rain = 0
KWT1 261520Z 04009KT 16/07 A303 RMK A01 T01630066  RH  052%=      5-min Rain = 0
KWT1 261521Z 04008KT 16/07 A303 RMK A01 T01640067  RH  053%=      5-min Rain = 0
KWT1 261522Z 05009KT 16/07 A303 RMK A01 T01640070  RH  054%=      5-min Rain = 0
KWT1 261523Z 05009KT 16/07 A3029 RMK A01 T01640069  RH  053%=      5-min Rain = 0
KWT1 261524Z 05008KT 16/07 A3029 RMK A01 T01640072  RH  055%=      5-min Rain = 0
KWT1 261525Z 05008KT 16/08 A3029 RMK A01 T01640075  RH  056%=      5-min Rain = 0
KWT1 261526Z 05009KT 16/08 A3029 RMK A01 T01640076  RH  056%=      5-min Rain = 0
KWT1 261527Z 05010KT 16/07 A3029 RMK A01 T01640074  RH  055%=      5-min Rain = 0
KWT1 261528Z 05009KT 17/08 A3029 RMK A01 T01650076  RH  056%=      5-min Rain = 0
KWT1 261529Z 05011KT 17/08 A3029 RMK A01 T01680077  RH  055%=      5-min Rain = 0
KWT1 261530Z 06013KT 17/07 A3029 RMK A01 T01710073  RH  053%=      5-min Rain = 0
KWT1 261531Z 05012KT 17/07 A3029 RMK A01 T01710070  RH  051%=      5-min Rain = 0
KWT1 261532Z 06012KT 17/07 A3029 RMK A01 T01710070  RH  051%=      5-min Rain = 0
KWT1 261533Z 06012KT 17/07 A3029 RMK A01 T01720071  RH  051%=      5-min Rain = 0
KWT1 261534Z 05012KT 17/07 A3029 RMK A01 T01730071  RH  051%=      5-min Rain = 0
KWT1 261535Z 05012KT 17/07 A3029 RMK A01 T01740074  RH  052%=      5-min Rain = 0
KWT1 261536Z 06010KT 18/08 A3029 RMK A01 T01750075  RH  052%=      5-min Rain = 0
KWT1 261537Z 05009KT 18/08 A3029 RMK A01 T01770083  RH  054%=      5-min Rain = 0
KWT1 261538Z 04011KT 18/08 A3029 RMK A01 T01800077  RH  051%=      5-min Rain = 0
KWT1 261539Z 04010KT 18/08 A3029 RMK A01 T01790075  RH  051%=      5-min Rain = 0
KWT1 261540Z 05011KT 18/07 A3029 RMK A01 T01770074  RH  051%=      5-min Rain = 0
KWT1 261541Z 05011KT 18/07 A3029 RMK A01 T01770074  RH  051%=      5-min Rain = 0
KWT1 261542Z 06011KT 18/07 A3029 RMK A01 T01770070  RH  049%=      5-min Rain = 0
KWT1 261543Z 06011KT 18/07 A3029 RMK A01 T01770074  RH  051%=      5-min Rain = 0
KWT1 261544Z 05010KT 18/08 A3029 RMK A01 T01800075  RH  050%=      5-min Rain = 0
KWT1 261545Z 06012KT 18/07 A3029 RMK A01 T01820073  RH  049%=      5-min Rain = 0
KWT1 261546Z 06010KT 18/08 A3029 RMK A01 T01830076  RH  049%=      5-min Rain = 0
KWT1 261547Z 07012KT 19/07 A3029 RMK A01 T01850073  RH  048%=      5-min Rain = 0
KWT1 261548Z 07014KT 18/07 A3028 RMK A01 T01830065  RH  046%=      5-min Rain = 0
KWT1 261549Z 08013KT 18/07 A3028 RMK A01 T01800066  RH  047%=      5-min Rain = 0
KWT1 261550Z 08011KT 18/07 A3028 RMK A01 T01790066  RH  048%=      5-min Rain = 0
KWT1 261551Z 07010KT 18/07 A3028 RMK A01 T01790072  RH  049%=      5-min Rain = 0
KWT1 261552Z 07013KT 18/07 A3028 RMK A01 T01810065  RH  047%=      5-min Rain = 0
KWT1 261553Z 06013KT 18/06 A3028 RMK A01 T01800062  RH  046%=      5-min Rain = 0
KWT1 261554Z 07014KT 18/06 A3028 RMK A01 T01800061  RH  046%=      5-min Rain = 0
KWT1 261555Z 07010KT 18/06 A3028 RMK A01 T01800063  RH  046%=      5-min Rain = 0
KWT1 261556Z 08012KT 18/06 A3028 RMK A01 T01800064  RH  047%=      5-min Rain = 0
KWT1 261557Z 08011KT 18/06 A3028 RMK A01 T01810059  RH  045%=      5-min Rain = 0
KWT1 261558Z 08011KT 18/06 A3028 RMK A01 T01800060  RH  045%=      5-min Rain = 0
KWT1 261559Z 06010KT 18/07 A3028 RMK A01 T01810065  RH  046%=      5-min Rain = 0
KWT1 261600Z 06011KT 18/07 A3028 RMK A01 T01830070  RH  048%=      5-min Rain = 0
KWT1 261601Z 08014KT 19/07 A3028 RMK A01 T01850069  RH  047%=      5-min Rain = 0
KWT1 261602Z 09013KT 19/07 A3028 RMK A01 T01860066  RH  045%=      5-min Rain = 0
KWT1 261603Z 08011KT 19/07 A3028 RMK A01 T01870066  RH  045%=      5-min Rain = 0
KWT1 261604Z 08014KT 19/06 A3027 RMK A01 T01880060  RH  043%=      5-min Rain = 0
KWT1 261605Z 07014KT 19/06 A3027 RMK A01 T01860055  RH  042%=      5-min Rain = 0
KWT1 261606Z 07015KT 19/05 A3027 RMK A01 T01850053  RH  042%=      5-min Rain = 0
KWT1 261607Z 08013KT 18/05 A3027 RMK A01 T01830048  RH  041%=      5-min Rain = 0
KWT1 261608Z 08013KT 18/05 A3027 RMK A01 T01830050  RH  042%=      5-min Rain = 0
KWT1 261609Z 08015KT 18/05 A3027 RMK A01 T01830049  RH  041%=      5-min Rain = 0
KWT1 261610Z 08015KT 18/05 A3027 RMK A01 T01840049  RH  041%=      5-min Rain = 0
KWT1 261611Z 07015KT 18/05 A3027 RMK A01 T01840049  RH  041%=      5-min Rain = 0
KWT1 261612Z 07014KT 18/05 A3027 RMK A01 T01830052  RH  042%=      5-min Rain = 0
KWT1 261613Z 07013KT 18/05 A3027 RMK A01 T01830049  RH  041%=      5-min Rain = 0
KWT1 261614Z 08016KT 18/05 A3027 RMK A01 T01840052  RH  042%=      5-min Rain = 0
KWT1 261615Z 08014G19KT 18/05 A3027 RMK A01 T01840048  RH  041%=      5-min Rain = 0
KWT1 261616Z 08015KT 18/05 A3027 RMK A01 T01840054  RH  042%=      5-min Rain = 0
KWT1 261617Z 08015KT 19/05 A3027 RMK A01 T01850049  RH  041%=      5-min Rain = 0
KWT1 261618Z 09013KT 19/05 A3027 RMK A01 T01860054  RH  042%=      5-min Rain = 0
KWT1 261619Z 10013KT 19/06 A3027 RMK A01 T01870057  RH  043%=      5-min Rain = 0
KWT1 261620Z 10015G20KT 19/06 A3027 RMK A01 T01880057  RH  042%=      5-min Rain = 0
KWT1 261621Z 09013KT 19/05 A3027 RMK A01 T01890047  RH  039%=      5-min Rain = 0
KWT1 261622Z 10014KT 19/06 A3027 RMK A01 T01880057  RH  042%=      5-min Rain = 0
KWT1 261623Z 10014G19KT 19/05 A3027 RMK A01 T01880051  RH  040%=      5-min Rain = 0
KWT1 261624Z 09016KT 19/05 A3027 RMK A01 T01880049  RH  040%=      5-min Rain = 0
KWT1 261625Z 10015KT 19/05 A3027 RMK A01 T01880049  RH  040%=      5-min Rain = 0
KWT1 261626Z 08016KT 19/05 A3027 RMK A01 T01910054  RH  041%=      5-min Rain = 0
KWT1 261627Z 09014KT 19/05 A3027 RMK A01 T01910053  RH  040%=      5-min Rain = 0
KWT1 261628Z 08016KT 19/05 A3027 RMK A01 T01890053  RH  041%=      5-min Rain = 0
KWT1 261629Z 08014KT 19/05 A3027 RMK A01 T01880052  RH  041%=      5-min Rain = 0
KWT1 261630Z 09013KT 19/06 A3027 RMK A01 T01880057  RH  042%=      5-min Rain = 0
KWT1 261631Z 09014KT 19/06 A3027 RMK A01 T01880056  RH  042%=      5-min Rain = 0
KWT1 261632Z 08012KT 19/06 A3027 RMK A01 T01890061  RH  043%=      5-min Rain = 0
KWT1 261633Z 09010KT 19/06 A3027 RMK A01 T01900063  RH  043%=      5-min Rain = 0
KWT1 261634Z 10010KT 19/07 A3027 RMK A01 T01920068  RH  044%=      5-min Rain = 0
KWT1 261635Z 10014KT 20/07 A3027 RMK A01 T01950066  RH  043%=      5-min Rain = 0
KWT1 261636Z 11011G16KT 20/06 A3027 RMK A01 T01950062  RH  042%=      5-min Rain = 0
KWT1 261637Z 10011KT 20/07 A3026 RMK A01 T01970065  RH  042%=      5-min Rain = 0
KWT1 261638Z 11015KT 20/06 A3026 RMK A01 T01980058  RH  040%=      5-min Rain = 0
KWT1 261639Z 10013KT 20/05 A3026 RMK A01 T01970054  RH  039%=      5-min Rain = 0
KWT1 261640Z 09014KT 20/06 A3026 RMK A01 T01960058  RH  040%=      5-min Rain = 0
KWT1 261641Z 09014KT 20/06 A3026 RMK A01 T01960060  RH  041%=      5-min Rain = 0
KWT1 261642Z 09014KT 20/06 A3026 RMK A01 T01960062  RH  042%=      5-min Rain = 0
KWT1 261643Z 09012KT 20/06 A3026 RMK A01 T01960061  RH  041%=      5-min Rain = 0
KWT1 261644Z 10013KT 20/06 A3026 RMK A01 T01960060  RH  041%=      5-min Rain = 0
KWT1 261645Z 10014G19KT 20/06 A3026 RMK A01 T01950058  RH  041%=      5-min Rain = 0
KWT1 261646Z 11016KT 19/05 A3026 RMK A01 T01940050  RH  039%=      5-min Rain = 0
KWT1 261647Z 11015KT 19/05 A3026 RMK A01 T01940047  RH  038%=      5-min Rain = 0
KWT1 261648Z 09012KT 19/05 A3026 RMK A01 T01930050  RH  039%=      5-min Rain = 0
KWT1 261649Z 09015G20KT 19/05 A3026 RMK A01 T01940053  RH  040%=      5-min Rain = 0
KWT1 261650Z 10016KT 20/05 A3026 RMK A01 T01960052  RH  039%=      5-min Rain = 0
KWT1 261651Z 11015KT 20/05 A3026 RMK A01 T01960047  RH  037%=      5-min Rain = 0
KWT1 261652Z 11015KT 20/05 A3026 RMK A01 T01960050  RH  038%=      5-min Rain = 0
KWT1 261653Z 11017KT 20/04 A3026 RMK A01 T01970044  RH  037%=      5-min Rain = 0
KWT1 261654Z 12017KT 20/04 A3025 RMK A01 T01960037  RH  035%=      5-min Rain = 0
KWT1 261655Z 11013KT 20/04 A3025 RMK A01 T01950039  RH  036%=      5-min Rain = 0
KWT1 261656Z 10014KT 20/04 A3025 RMK A01 T01960041  RH  036%=      5-min Rain = 0
KWT1 261657Z 10013KT 20/04 A3025 RMK A01 T01970040  RH  035%=      5-min Rain = 0
KWT1 261658Z 11015KT 20/04 A3025 RMK A01 T01970041  RH  035%=      5-min Rain = 0
KWT1 261659Z 10016KT 20/04 A3025 RMK A01 T01990035  RH  034%=      5-min Rain = 0
KWT1 261700Z 10017KT 20/03 A3025 RMK A01 T01990034  RH  034%=      5-min Rain = 0
KWT1 261701Z 11014KT 20/03 A3025 RMK A01 T01970032  RH  033%=      5-min Rain = 0
KWT1 261702Z 11014KT 20/04 A3025 RMK A01 T01970037  RH  035%=      5-min Rain = 0
KWT1 261703Z 12012KT 20/04 A3025 RMK A01 T01990042  RH  036%=      5-min Rain = 0
KWT1 261704Z 11011KT 20/04 A3025 RMK A01 T01990041  RH  035%=      5-min Rain = 0
KWT1 261705Z 11011KT 20/05 A3025 RMK A01 T02000051  RH  038%=      5-min Rain = 0
KWT1 261706Z 11014G20KT 20/05 A3025 RMK A01 T02020049  RH  037%=      5-min Rain = 0
KWT1 261707Z 11017KT 20/03 A3025 RMK A01 T02030033  RH  032%=      5-min Rain = 0
KWT1 261708Z 12016KT 20/03 A3025 RMK A01 T02020029  RH  032%=      5-min Rain = 0
KWT1 261709Z 12014KT 20/03 A3024 RMK A01 T02010028  RH  032%=      5-min Rain = 0
KWT1 261710Z 11013KT 20/03 A3024 RMK A01 T02010030  RH  032%=      5-min Rain = 0
KWT1 261711Z 10014KT 20/04 A3024 RMK A01 T02010035  RH  033%=      5-min Rain = 0
KWT1 261712Z 11011KT 20/05 A3024 RMK A01 T02020048  RH  036%=      5-min Rain = 0
KWT1 261713Z 13015KT 20/05 A3024 RMK A01 T02040048  RH  036%=      5-min Rain = 0
KWT1 261714Z 12015KT 21/04 A3024 RMK A01 T02050037  RH  033%=      5-min Rain = 0
KWT1 261715Z 12013KT 20/04 A3024 RMK A01 T02040042  RH  034%=      5-min Rain = 0
KWT1 261716Z 12015KT 20/04 A3024 RMK A01 T02040041  RH  034%=      5-min Rain = 0
KWT1 261717Z 13014KT 21/04 A3024 RMK A01 T02050036  RH  033%=      5-min Rain = 0
KWT1 261718Z 11013G20KT 20/05 A3024 RMK A01 T02040048  RH  036%=      5-min Rain = 0
KWT1 261719Z 11015KT 21/04 A3024 RMK A01 T02060035  RH  032%=      5-min Rain = 0
KWT1 261720Z 11014KT 21/04 A3024 RMK A01 T02050036  RH  033%=      5-min Rain = 0
KWT1 261721Z 11014KT 20/04 A3024 RMK A01 T02040039  RH  034%=      5-min Rain = 0
KWT1 261722Z 11012KT 20/03 A3024 RMK A01 T02030034  RH  033%=      5-min Rain = 0
KWT1 261723Z 11011G16KT 20/05 A3023 RMK A01 T02030048  RH  036%=      5-min Rain = 0
KWT1 261724Z 11014KT 21/05 A3024 RMK A01 T02050045  RH  035%=      5-min Rain = 0
KWT1 261725Z 11009KT 21/05 A3023 RMK A01 T02060048  RH  035%=      5-min Rain = 0
KWT1 261726Z 12013KT 21/05 A3023 RMK A01 T02060050  RH  036%=      5-min Rain = 0
KWT1 261727Z 12011G16KT 21/05 A3023 RMK A01 T02060048  RH  036%=      5-min Rain = 0
KWT1 261728Z 13014KT 21/05 A3023 RMK A01 T02060049  RH  036%=      5-min Rain = 0
KWT1 261729Z 13013KT 21/04 A3023 RMK A01 T02070044  RH  034%=      5-min Rain = 0
KWT1 261730Z 13013KT 21/05 A3023 RMK A01 T02070045  RH  034%=      5-min Rain = 0
KWT1 261731Z 11013KT 21/05 A3023 RMK A01 T02080046  RH  035%=      5-min Rain = 0
KWT1 261732Z 11013KT 21/04 A3023 RMK A01 T02080037  RH  032%=      5-min Rain = 0
KWT1 261733Z 11013KT 21/04 A3023 RMK A01 T02060041  RH  034%=      5-min Rain = 0
KWT1 261734Z 11016KT 21/04 A3023 RMK A01 T02070042  RH  034%=      5-min Rain = 0
KWT1 261735Z 12013G18KT 21/03 A3023 RMK A01 T02070028  RH  031%=      5-min Rain = 0
KWT1 261736Z 12014KT 21/03 A3023 RMK A01 T02060034  RH  032%=      5-min Rain = 0
KWT1 261737Z 11012KT 21/04 A3023 RMK A01 T02070040  RH  033%=      5-min Rain = 0
KWT1 261738Z 12014KT 21/05 A3023 RMK A01 T02100046  RH  034%=      5-min Rain = 0
KWT1 261739Z 11015KT 21/04 A3023 RMK A01 T02100043  RH  033%=      5-min Rain = 0
KWT1 261740Z 11014KT 21/05 A3023 RMK A01 T02100049  RH  035%=      5-min Rain = 0
KWT1 261741Z 11013KT 21/05 A3023 RMK A01 T02090050  RH  035%=      5-min Rain = 0
KWT1 261742Z 11012KT 21/05 A3023 RMK A01 T02090048  RH  035%=      5-min Rain = 0
KWT1 261743Z 13011KT 21/05 A3022 RMK A01 T02090051  RH  035%=      5-min Rain = 0
KWT1 261744Z 14014G19KT 21/05 A3022 RMK A01 T02100054  RH  036%=      5-min Rain = 0
KWT1 261745Z 14014KT 21/06 A3022 RMK A01 T02100056  RH  036%=      5-min Rain = 0
KWT1 261746Z 14013KT 21/05 A3022 RMK A01 T02110051  RH  035%=      5-min Rain = 0
KWT1 261747Z 13012KT 21/05 A3022 RMK A01 T02110054  RH  036%=      5-min Rain = 0
KWT1 261748Z 12012KT 21/05 A3022 RMK A01 T02110051  RH  035%=      5-min Rain = 0
KWT1 261749Z 11011KT 21/05 A3022 RMK A01 T02110046  RH  034%=      5-min Rain = 0
KWT1 261750Z 12013KT 21/05 A3022 RMK A01 T02100049  RH  035%=      5-min Rain = 0
KWT1 261751Z 12015KT 21/04 A3022 RMK A01 T02110044  RH  033%=      5-min Rain = 0
KWT1 261752Z 12011KT 21/03 A3022 RMK A01 T02110032  RH  031%=      5-min Rain = 0
KWT1 261753Z 12009KT 21/04 A3022 RMK A01 T02090037  RH  032%=      5-min Rain = 0
KWT1 261754Z 13013KT 21/05 A3022 RMK A01 T02100045  RH  034%=      5-min Rain = 0
KWT1 261755Z 13013KT 21/04 A3022 RMK A01 T02110041  RH  033%=      5-min Rain = 0
KWT1 261756Z 13011KT 21/04 A3022 RMK A01 T02110042  RH  033%=      5-min Rain = 0
KWT1 261757Z 12011KT 21/05 A3022 RMK A01 T02100045  RH  034%=      5-min Rain = 0
KWT1 261758Z 12011KT 21/06 A3022 RMK A01 T02100056  RH  036%=      5-min Rain = 0
KWT1 261759Z 13015KT 21/06 A3022 RMK A01 T02130058  RH  036%=      5-min Rain = 0
KWT1 261800Z 13011KT 21/06 A3022 RMK A01 T02140056  RH  036%=      5-min Rain = 0
KWT1 261801Z 14011KT 21/05 A3022 RMK A01 T02140050  RH  034%=      5-min Rain = 0
KWT1 261802Z 13014KT 21/05 A3021 RMK A01 T02140053  RH  035%=      5-min Rain = 0
KWT1 261803Z 13015KT 21/05 A3022 RMK A01 T02140049  RH  034%=      5-min Rain = 0
KWT1 261804Z 13012KT 21/05 A3021 RMK A01 T02130049  RH  034%=      5-min Rain = 0
KWT1 261805Z 11012KT 21/05 A3021 RMK A01 T02130052  RH  035%=      5-min Rain = 0
KWT1 261806Z 12014KT 21/05 A3021 RMK A01 T02140051  RH  035%=      5-min Rain = 0
KWT1 261807Z 12013KT 21/05 A3021 RMK A01 T02140049  RH  034%=      5-min Rain = 0
KWT1 261808Z 12011KT 21/04 A3021 RMK A01 T02140041  RH  032%=      5-min Rain = 0
KWT1 261809Z 14010KT 21/04 A3021 RMK A01 T02130043  RH  033%=      5-min Rain = 0
KWT1 261810Z 13010KT 21/04 A3021 RMK A01 T02130043  RH  033%=      5-min Rain = 0
KWT1 261811Z 11008KT 21/05 A3021 RMK A01 T02130049  RH  034%=      5-min Rain = 0
KWT1 261812Z 13009KT 22/06 A3021 RMK A01 T02150055  RH  035%=      5-min Rain = 0
KWT1 261813Z 15014KT 22/06 A3021 RMK A01 T02170058  RH  035%=      5-min Rain = 0
KWT1 261814Z 14014KT 22/06 A3021 RMK A01 T02170058  RH  036%=      5-min Rain = 0
KWT1 261815Z 14013KT 22/05 A3021 RMK A01 T02160053  RH  034%=      5-min Rain = 0
KWT1 261816Z 15014KT 22/05 A3021 RMK A01 T02150049  RH  034%=      5-min Rain = 0
KWT1 261817Z 14012KT 21/05 A3021 RMK A01 T02140046  RH  033%=      5-min Rain = 0
KWT1 261818Z 15014KT 21/05 A302 RMK A01 T02140045  RH  033%=      5-min Rain = 0
KWT1 261819Z 14015KT 21/04 A302 RMK A01 T02140044  RH  033%=      5-min Rain = 0
KWT1 261820Z 14014KT 22/05 A302 RMK A01 T02150046  RH  033%=      5-min Rain = 0
KWT1 261821Z 14015KT 22/04 A302 RMK A01 T02160043  RH  032%=      5-min Rain = 0
KWT1 261822Z 14011KT 22/05 A302 RMK A01 T02160048  RH  033%=      5-min Rain = 0
KWT1 261823Z 14014KT 22/05 A302 RMK A01 T02170045  RH  032%=      5-min Rain = 0
KWT1 261824Z 14011KT 22/05 A302 RMK A01 T02160045  RH  033%=      5-min Rain = 0
KWT1 261825Z 13012KT 22/05 A302 RMK A01 T02150051  RH  034%=      5-min Rain = 0
KWT1 261826Z 13009KT 22/05 A302 RMK A01 T02150053  RH  035%=      5-min Rain = 0
KWT1 261827Z 14010KT 22/06 A302 RMK A01 T02170059  RH  036%=      5-min Rain = 0
KWT1 261828Z 13011KT 22/06 A302 RMK A01 T02180055  RH  035%=      5-min Rain = 0
KWT1 261829Z 14013KT 22/06 A302 RMK A01 T02180058  RH  035%=      5-min Rain = 0
KWT1 261830Z 14013KT 22/05 A302 RMK A01 T02190050  RH  033%=      5-min Rain = 0
KWT1 261831Z 13011KT 22/06 A302 RMK A01 T02170056  RH  035%=      5-min Rain = 0
KWT1 261832Z 12014KT 22/05 A302 RMK A01 T02180054  RH  034%=      5-min Rain = 0
KWT1 261833Z 13013KT 22/05 A302 RMK A01 T02190052  RH  034%=      5-min Rain = 0
KWT1 261834Z 13013KT 22/05 A3019 RMK A01 T02180048  RH  033%=      5-min Rain = 0
KWT1 261835Z 12015KT 22/05 A302 RMK A01 T02170048  RH  033%=      5-min Rain = 0
KWT1 261836Z 12013KT 22/05 A302 RMK A01 T02170047  RH  033%=      5-min Rain = 0
KWT1 261837Z 11010KT 22/05 A302 RMK A01 T02160048  RH  033%=      5-min Rain = 0
KWT1 261838Z 12013KT 22/05 A302 RMK A01 T02170048  RH  033%=      5-min Rain = 0
KWT1 261839Z 11011KT 22/05 A302 RMK A01 T02170054  RH  034%=      5-min Rain = 0
KWT1 261840Z 13013KT 22/05 A302 RMK A01 T02190046  RH  032%=      5-min Rain = 0
KWT1 261841Z 14012KT 22/04 A302 RMK A01 T02190040  RH  031%=      5-min Rain = 0
KWT1 261842Z 14012KT 22/04 A3019 RMK A01 T02190035  RH  030%=      5-min Rain = 0
KWT1 261843Z 13013KT 22/04 A302 RMK A01 T02180042  RH  032%=      5-min Rain = 0
KWT1 261844Z 14012KT 22/04 A3019 RMK A01 T02180035  RH  030%=      5-min Rain = 0
KWT1 261845Z 13011KT 22/04 A3019 RMK A01 T02190044  RH  032%=      5-min Rain = 0
KWT1 261846Z 13013KT 22/04 A3019 RMK A01 T02200039  RH  030%=      5-min Rain = 0
KWT1 261847Z 14014KT 22/04 A3019 RMK A01 T02200036  RH  030%=      5-min Rain = 0
KWT1 261848Z 13012KT 22/04 A3019 RMK A01 T02200037  RH  030%=      5-min Rain = 0
KWT1 261849Z 12012KT 22/04 A3019 RMK A01 T02200039  RH  031%=      5-min Rain = 0
KWT1 261850Z 11011KT 22/04 A3019 RMK A01 T02200035  RH  030%=      5-min Rain = 0
KWT1 261851Z 12012KT 22/04 A3019 RMK A01 T02200040  RH  031%=      5-min Rain = 0
KWT1 261852Z 13010KT 22/04 A3019 RMK A01 T02210036  RH  030%=      5-min Rain = 0
KWT1 261853Z 13011KT 22/05 A3019 RMK A01 T02220047  RH  032%=      5-min Rain = 0
KWT1 261854Z 13010KT 22/05 A3019 RMK A01 T02230045  RH  031%=      5-min Rain = 0
KWT1 261855Z 13012KT 22/05 A3019 RMK A01 T02240049  RH  032%=      5-min Rain = 0
KWT1 261856Z 12011KT 23/05 A3019 RMK A01 T02250046  RH  031%=      5-min Rain = 0
KWT1 261857Z 11013KT 23/05 A3019 RMK A01 T02250049  RH  032%=      5-min Rain = 0
KWT1 261858Z 12014KT 23/04 A3019 RMK A01 T02250040  RH  030%=      5-min Rain = 0
KWT1 261859Z 12014KT 22/04 A3019 RMK A01 T02230039  RH  030%=      5-min Rain = 0
KWT1 261900Z 12011KT 22/04 A3019 RMK A01 T02220038  RH  030%=      5-min Rain = 0
KWT1 261901Z 11012KT 22/05 A3019 RMK A01 T02220045  RH  031%=      5-min Rain = 0
KWT1 261902Z 11011KT 22/04 A3019 RMK A01 T02230044  RH  031%=      5-min Rain = 0
KWT1 261903Z 13009KT 22/05 A3019 RMK A01 T02220045  RH  031%=      5-min Rain = 0
KWT1 261904Z 11010KT 22/05 A3019 RMK A01 T02230049  RH  032%=      5-min Rain = 0
KWT1 261905Z 12009KT 22/05 A3019 RMK A01 T02240046  RH  031%=      5-min Rain = 0
KWT1 261906Z 13008KT 23/05 A3019 RMK A01 T02250047  RH  031%=      5-min Rain = 0
KWT1 261907Z 13011KT 23/05 A3018 RMK A01 T02250050  RH  032%=      5-min Rain = 0
KWT1 261908Z 12010KT 23/06 A3019 RMK A01 T02260056  RH  033%=      5-min Rain = 0
KWT1 261909Z 12011KT 23/06 A3019 RMK A01 T02280057  RH  033%=      5-min Rain = 0
KWT1 261910Z 12010KT 23/06 A3019 RMK A01 T02280056  RH  033%=      5-min Rain = 0
KWT1 261911Z 14011KT 23/06 A3019 RMK A01 T02270057  RH  033%=      5-min Rain = 0
KWT1 261912Z 14010KT 23/06 A3019 RMK A01 T02270057  RH  033%=      5-min Rain = 0
KWT1 261913Z 13010KT 23/06 A3019 RMK A01 T02290059  RH  033%=      5-min Rain = 0
KWT1 261914Z 13010KT 23/06 A3019 RMK A01 T02300057  RH  033%=      5-min Rain = 0
KWT1 261915Z 14009KT 23/06 A3019 RMK A01 T02300055  RH  032%=      5-min Rain = 0
KWT1 261916Z 15008KT 23/05 A3019 RMK A01 T02290048  RH  031%=      5-min Rain = 0
KWT1 261917Z 15009KT 23/05 A3019 RMK A01 T02280049  RH  031%=      5-min Rain = 0
KWT1 261918Z 15010KT 23/05 A3019 RMK A01 T02280045  RH  030%=      5-min Rain = 0
KWT1 261919Z 15008KT 23/04 A3018 RMK A01 T02280038  RH  029%=      5-min Rain = 0
KWT1 261920Z 16007KT 23/04 A3018 RMK A01 T02270041  RH  030%=      5-min Rain = 0
KWT1 261921Z 14007KT 23/04 A3018 RMK A01 T02260043  RH  030%=      5-min Rain = 0
KWT1 261922Z 14007KT 23/04 A3018 RMK A01 T02260044  RH  030%=      5-min Rain = 0
KWT1 261923Z 13006KT 23/05 A3018 RMK A01 T02260047  RH  031%=      5-min Rain = 0
KWT1 261924Z 12005KT 23/06 A3018 RMK A01 T02270057  RH  033%=      5-min Rain = 0
KWT1 261925Z 14009G14KT 23/07 A3018 RMK A01 T02300065  RH  034%=      5-min Rain = 0
KWT1 261926Z 14010KT 23/05 A3018 RMK A01 T02320052  RH  031%=      5-min Rain = 0
KWT1 261927Z 13009KT 23/05 A3018 RMK A01 T02310052  RH  031%=      5-min Rain = 0
KWT1 261928Z 11011KT 23/06 A3018 RMK A01 T02310056  RH  032%=      5-min Rain = 0
KWT1 261929Z 13013KT 23/06 A3018 RMK A01 T02300057  RH  033%=      5-min Rain = 0
KWT1 261930Z 13011KT 23/06 A3018 RMK A01 T02300058  RH  033%=      5-min Rain = 0
KWT1 261931Z 14011KT 23/06 A3018 RMK A01 T02310057  RH  032%=      5-min Rain = 0
KWT1 261932Z 14007KT 23/06 A3017 RMK A01 T02310059  RH  033%=      5-min Rain = 0
KWT1 261933Z 14007KT 23/06 A3017 RMK A01 T02320060  RH  033%=      5-min Rain = 0
KWT1 261934Z 13008KT 23/06 A3017 RMK A01 T02320058  RH  032%=      5-min Rain = 0
KWT1 261935Z 13009KT 23/05 A3017 RMK A01 T02320054  RH  032%=      5-min Rain = 0
KWT1 261936Z 13009KT 23/06 A3017 RMK A01 T02310057  RH  032%=      5-min Rain = 0
KWT1 261937Z 13009KT 23/06 A3017 RMK A01 T02310059  RH  033%=      5-min Rain = 0
KWT1 261938Z 14008KT 23/07 A3017 RMK A01 T02330069  RH  035%=      5-min Rain = 0
KWT1 261939Z 15007KT 24/07 A3017 RMK A01 T02370068  RH  034%=      5-min Rain = 0
KWT1 261940Z 15011KT 24/06 A3017 RMK A01 T02380056  RH  031%=      5-min Rain = 0
KWT1 261941Z 12006G11KT 23/05 A3017 RMK A01 T02340051  RH  031%=      5-min Rain = 0
KWT1 261942Z 13007KT 23/06 A3017 RMK A01 T02310057  RH  032%=      5-min Rain = 0
KWT1 261943Z 13004KT 23/06 A3017 RMK A01 T02310060  RH  033%=      5-min Rain = 0
KWT1 261944Z 13007KT 23/06 A3017 RMK A01 T02330061  RH  033%=      5-min Rain = 0
KWT1 261945Z 14008KT 23/06 A3017 RMK A01 T02340060  RH  032%=      5-min Rain = 0
KWT1 261946Z 15010KT 23/06 A3017 RMK A01 T02330057  RH  032%=      5-min Rain = 0
KWT1 261947Z 16008KT 23/06 A3017 RMK A01 T02330055  RH  032%=      5-min Rain = 0
KWT1 261948Z 14012G17KT 23/06 A3017 RMK A01 T02320055  RH  032%=      5-min Rain = 0
KWT1 261949Z 13009KT 23/05 A3017 RMK A01 T02320051  RH  031%=      5-min Rain = 0
KWT1 261950Z 16010KT 23/06 A3016 RMK A01 T02310058  RH  033%=      5-min Rain = 0
KWT1 261951Z 15012KT 23/05 A3016 RMK A01 T02320052  RH  031%=      5-min Rain = 0
KWT1 261952Z 13011KT 23/05 A3016 RMK A01 T02320050  RH  031%=      5-min Rain = 0
KWT1 261953Z 15009KT 23/05 A3016 RMK A01 T02310050  RH  031%=      5-min Rain = 0
KWT1 261954Z 16010KT 23/05 A3016 RMK A01 T02310052  RH  031%=      5-min Rain = 0
KWT1 261955Z 16010KT 23/05 A3016 RMK A01 T02320047  RH  030%=      5-min Rain = 0
KWT1 261956Z 14009KT 23/04 A3016 RMK A01 T02310044  RH  030%=      5-min Rain = 0
KWT1 261957Z 14009KT 23/05 A3016 RMK A01 T02310051  RH  031%=      5-min Rain = 0
KWT1 261958Z 14009KT 23/06 A3016 RMK A01 T02320062  RH  033%=      5-min Rain = 0
KWT1 261959Z 13010KT 24/06 A3016 RMK A01 T02360059  RH  032%=      5-min Rain = 0
KWT1 262000Z 14010KT 24/05 A3016 RMK A01 T02370054  RH  031%=      5-min Rain = 0
KWT1 262001Z 15008KT 24/05 A3016 RMK A01 T02370050  RH  030%=      5-min Rain = 0
KWT1 262002Z 15010KT 24/06 A3016 RMK A01 T02360058  RH  032%=      5-min Rain = 0
KWT1 262003Z 16008KT 24/05 A3016 RMK A01 T02360048  RH  030%=      5-min Rain = 0
KWT1 262004Z 15009KT 23/06 A3015 RMK A01 T02340057  RH  032%=      5-min Rain = 0
KWT1 262005Z 13009KT 24/06 A3015 RMK A01 T02350064  RH  033%=      5-min Rain = 0
KWT1 262006Z 14012KT 24/06 A3015 RMK A01 T02380060  RH  032%=      5-min Rain = 0
KWT1 262007Z 13013KT 24/06 A3015 RMK A01 T02390058  RH  031%=      5-min Rain = 0
KWT1 262008Z 13012KT 24/06 A3015 RMK A01 T02390063  RH  032%=      5-min Rain = 0
KWT1 262009Z 14011KT 24/06 A3015 RMK A01 T02400063  RH  032%=      5-min Rain = 0
KWT1 262010Z 15010KT 24/06 A3015 RMK A01 T02400064  RH  032%=      5-min Rain = 0
KWT1 262011Z 17008KT 24/06 A3015 RMK A01 T02390055  RH  030%=      5-min Rain = 0
KWT1 262012Z 15007KT 24/06 A3015 RMK A01 T02360056  RH  031%=      5-min Rain = 0
KWT1 262013Z 14010KT 24/07 A3015 RMK A01 T02370071  RH  034%=      5-min Rain = 0
KWT1 262014Z 15009KT 24/07 A3015 RMK A01 T02400067  RH  033%=      5-min Rain = 0
KWT1 262015Z 15008KT 24/07 A3014 RMK A01 T02410066  RH  033%=      5-min Rain = 0
KWT1 262016Z 16011KT 24/06 A3014 RMK A01 T02410063  RH  032%=      5-min Rain = 0
KWT1 262017Z 16008KT 24/06 A3014 RMK A01 T02400061  RH  032%=      5-min Rain = 0
KWT1 262018Z 16008KT 24/07 A3014 RMK A01 T02390066  RH  033%=      5-min Rain = 0
KWT1 262019Z 15010KT 24/07 A3014 RMK A01 T02400066  RH  033%=      5-min Rain = 0
KWT1 262020Z 15011KT 24/07 A3014 RMK A01 T02410069  RH  033%=      5-min Rain = 0
KWT1 262021Z 15010KT 24/07 A3014 RMK A01 T02420065  RH  032%=      5-min Rain = 0
KWT1 262022Z 15010KT 24/06 A3014 RMK A01 T02410063  RH  032%=      5-min Rain = 0
KWT1 262023Z 15008KT 24/06 A3014 RMK A01 T02410062  RH  032%=      5-min Rain = 0
KWT1 262024Z 15009KT 24/06 A3014 RMK A01 T02400061  RH  032%=      5-min Rain = 0
KWT1 262025Z 16009KT 24/08 A3014 RMK A01 T02400076  RH  035%=      5-min Rain = 0
KWT1 262026Z 16009KT 24/07 A3014 RMK A01 T02420065  RH  032%=      5-min Rain = 0
KWT1 262027Z 13009KT 24/07 A3014 RMK A01 T02420068  RH  033%=      5-min Rain = 0
KWT1 262028Z 15010KT 24/06 A3014 RMK A01 T02410063  RH  032%=      5-min Rain = 0
KWT1 262029Z 16009KT 24/06 A3014 RMK A01 T02400062  RH  032%=      5-min Rain = 0
KWT1 262030Z 16010KT 24/06 A3014 RMK A01 T02400060  RH  031%=      5-min Rain = 0
KWT1 262031Z 16010KT 24/07 A3014 RMK A01 T02400066  RH  033%=      5-min Rain = 0
KWT1 262032Z 14011KT 24/06 A3013 RMK A01 T02400064  RH  032%=      5-min Rain = 0
KWT1 262033Z 13010KT 24/07 A3014 RMK A01 T02410067  RH  033%=      5-min Rain = 0
KWT1 262034Z 13011KT 24/06 A3013 RMK A01 T02410062  RH  032%=      5-min Rain = 0
KWT1 262035Z 13009KT 24/06 A3013 RMK A01 T02400062  RH  032%=      5-min Rain = 0
KWT1 262036Z 13009KT 24/07 A3013 RMK A01 T02400065  RH  033%=      5-min Rain = 0
KWT1 262037Z 12009KT 24/07 A3013 RMK A01 T02400065  RH  032%=      5-min Rain = 0
KWT1 262038Z 13008G13KT 24/07 A3013 RMK A01 T02420071  RH  034%=      5-min Rain = 0
KWT1 262039Z 16012KT 24/06 A3013 RMK A01 T02430063  RH  031%=      5-min Rain = 0
KWT1 262040Z 16011KT 24/06 A3013 RMK A01 T02420060  RH  031%=      5-min Rain = 0
KWT1 262041Z 17010KT 24/06 A3013 RMK A01 T02410059  RH  031%=      5-min Rain = 0
KWT1 262042Z 14007KT 24/07 A3013 RMK A01 T02400065  RH  032%=      5-min Rain = 0
KWT1 262043Z 14008KT 24/07 A3013 RMK A01 T02410070  RH  033%=      5-min Rain = 0
KWT1 262044Z 14008KT 24/07 A3013 RMK A01 T02430071  RH  033%=      5-min Rain = 0
KWT1 262045Z 14011G16KT 24/07 A3013 RMK A01 T02440067  RH  032%=      5-min Rain = 0
KWT1 262046Z 15010KT 24/07 A3012 RMK A01 T02430067  RH  032%=      5-min Rain = 0
KWT1 262047Z 14010KT 24/07 A3012 RMK A01 T02430069  RH  033%=      5-min Rain = 0
KWT1 262048Z 14011KT 24/07 A3012 RMK A01 T02430067  RH  032%=      5-min Rain = 0
KWT1 262049Z 14010KT 24/06 A3012 RMK A01 T02420062  RH  031%=      5-min Rain = 0
KWT1 262050Z 14011KT 24/07 A3012 RMK A01 T02410068  RH  033%=      5-min Rain = 0
KWT1 262051Z 16011KT 24/07 A3012 RMK A01 T02410070  RH  033%=      5-min Rain = 0
KWT1 262052Z 17012KT 24/07 A3012 RMK A01 T02410065  RH  032%=      5-min Rain = 0
KWT1 262053Z 17012KT 24/07 A3012 RMK A01 T02410073  RH  034%=      5-min Rain = 0
KWT1 262054Z 16014KT 24/07 A3012 RMK A01 T02430071  RH  033%=      5-min Rain = 0
KWT1 262055Z 16011KT 24/07 A3012 RMK A01 T02430067  RH  032%=      5-min Rain = 0
KWT1 262056Z 16009KT 24/07 A3012 RMK A01 T02420069  RH  033%=      5-min Rain = 0
KWT1 262057Z 15013KT 24/07 A3012 RMK A01 T02410072  RH  034%=      5-min Rain = 0
KWT1 262058Z 15012KT 24/07 A3011 RMK A01 T02420069  RH  033%=      5-min Rain = 0
KWT1 262059Z 16011KT 24/07 A3011 RMK A01 T02420071  RH  033%=      5-min Rain = 0
KWT1 262100Z 16011KT 24/07 A3011 RMK A01 T02430071  RH  033%=      5-min Rain = 0
KWT1 262101Z 14013KT 24/07 A3011 RMK A01 T02420070  RH  033%=      5-min Rain = 0
KWT1 262102Z 14012KT 24/07 A3011 RMK A01 T02420072  RH  033%=      5-min Rain = 0
KWT1 262103Z 15010KT 24/08 A3011 RMK A01 T02430075  RH  034%=      5-min Rain = 0
KWT1 262104Z 16009KT 24/08 A3011 RMK A01 T02440075  RH  034%=      5-min Rain = 0
KWT1 262105Z 15009KT 25/08 A3011 RMK A01 T02450079  RH  035%=      5-min Rain = 0
KWT1 262106Z 14011KT 25/08 A3011 RMK A01 T02460077  RH  034%=      5-min Rain = 0
KWT1 262107Z 16013KT 25/07 A3011 RMK A01 T02460071  RH  033%=      5-min Rain = 0
KWT1 262108Z 16013KT 24/07 A3011 RMK A01 T02430070  RH  033%=      5-min Rain = 0
KWT1 262109Z 15011KT 24/08 A3011 RMK A01 T02420075  RH  034%=      5-min Rain = 0
KWT1 262110Z 15012KT 24/08 A3011 RMK A01 T02420077  RH  035%=      5-min Rain = 0
KWT1 262111Z 16011KT 24/07 A3011 RMK A01 T02430073  RH  034%=      5-min Rain = 0
KWT1 262112Z 16012KT 24/07 A3011 RMK A01 T02420071  RH  033%=      5-min Rain = 0
KWT1 262113Z 15010KT 24/08 A3011 RMK A01 T02420075  RH  034%=      5-min Rain = 0
KWT1 262114Z 15013KT 24/07 A3011 RMK A01 T02420073  RH  034%=      5-min Rain = 0
KWT1 262115Z 14008KT 24/07 A301 RMK A01 T02420074  RH  034%=      5-min Rain = 0
KWT1 262116Z 16011KT 24/08 A301 RMK A01 T02420078  RH  035%=      5-min Rain = 0
KWT1 262117Z 16013KT 24/07 A301 RMK A01 T02420073  RH  034%=      5-min Rain = 0
KWT1 262118Z 16013KT 24/08 A301 RMK A01 T02420077  RH  035%=      5-min Rain = 0
KWT1 262119Z 15011KT 24/08 A301 RMK A01 T02430081  RH  035%=      5-min Rain = 0
KWT1 262120Z 15010KT 25/08 A301 RMK A01 T02450079  RH  035%=      5-min Rain = 0
KWT1 262121Z 15010KT 25/08 A301 RMK A01 T02450077  RH  034%=      5-min Rain = 0
KWT1 262122Z 16010KT 24/08 A301 RMK A01 T02440077  RH  034%=      5-min Rain = 0
KWT1 262123Z 16010G15KT 24/08 A301 RMK A01 T02440081  RH  035%=      5-min Rain = 0
KWT1 262124Z 16012KT 24/07 A301 RMK A01 T02440073  RH  033%=      5-min Rain = 0
KWT1 262125Z 16011KT 24/07 A301 RMK A01 T02420073  RH  034%=      5-min Rain = 0
KWT1 262126Z 16010KT 24/07 A301 RMK A01 T02410070  RH  033%=      5-min Rain = 0
KWT1 262127Z 16010KT 24/08 A301 RMK A01 T02400075  RH  035%=      5-min Rain = 0
KWT1 262128Z 15012KT 24/08 A301 RMK A01 T02420077  RH  035%=      5-min Rain = 0
KWT1 262129Z 14012KT 24/07 A3009 RMK A01 T02420073  RH  034%=      5-min Rain = 0
KWT1 262130Z 15012KT 24/08 A3009 RMK A01 T02430075  RH  034%=      5-min Rain = 0
KWT1 262131Z 15010KT 24/08 A3009 RMK A01 T02430076  RH  034%=      5-min Rain = 0
KWT1 262132Z 15009KT 24/08 A3009 RMK A01 T02440083  RH  036%=      5-min Rain = 0
KWT1 262133Z 15011KT 25/08 A3009 RMK A01 T02460076  RH  034%=      5-min Rain = 0
KWT1 262134Z 15013KT 25/08 A3009 RMK A01 T02450077  RH  034%=      5-min Rain = 0
KWT1 262135Z 16012KT 24/08 A3009 RMK A01 T02440078  RH  035%=      5-min Rain = 0
KWT1 262136Z 16010KT 24/08 A3009 RMK A01 T02440076  RH  034%=      5-min Rain = 0
KWT1 262137Z 16010KT 24/07 A3009 RMK A01 T02430074  RH  034%=      5-min Rain = 0
KWT1 262138Z 14012KT 24/08 A3009 RMK A01 T02420076  RH  034%=      5-min Rain = 0
KWT1 262139Z 14011KT 24/08 A3009 RMK A01 T02420075  RH  034%=      5-min Rain = 0
KWT1 262140Z 15010KT 24/08 A3009 RMK A01 T02420083  RH  036%=      5-min Rain = 0
KWT1 262141Z 14010G15KT 25/09 A3009 RMK A01 T02450087  RH  036%=      5-min Rain = 0
KWT1 262142Z 15015KT 25/08 A3009 RMK A01 T02470084  RH  035%=      5-min Rain = 0
KWT1 262143Z 15011KT 25/08 A3008 RMK A01 T02470081  RH  035%=      5-min Rain = 0
KWT1 262144Z 16012KT 25/08 A3008 RMK A01 T02460079  RH  035%=      5-min Rain = 0
KWT1 262145Z 14011KT 24/08 A3008 RMK A01 T02440079  RH  035%=      5-min Rain = 0
KWT1 262146Z 14013KT 24/08 A3008 RMK A01 T02430079  RH  035%=      5-min Rain = 0
KWT1 262147Z 15011KT 24/08 A3008 RMK A01 T02440079  RH  035%=      5-min Rain = 0
KWT1 262148Z 14010KT 24/08 A3008 RMK A01 T02440082  RH  036%=      5-min Rain = 0
KWT1 262149Z 14011KT 25/09 A3008 RMK A01 T02460085  RH  036%=      5-min Rain = 0
KWT1 262150Z 15010KT 25/08 A3008 RMK A01 T02470082  RH  035%=      5-min Rain = 0
KWT1 262151Z 15010KT 25/09 A3008 RMK A01 T02480085  RH  035%=      5-min Rain = 0
KWT1 262152Z 15012KT 25/08 A3008 RMK A01 T02480082  RH  035%=      5-min Rain = 0
KWT1 262153Z 15010KT 25/08 A3008 RMK A01 T02460079  RH  034%=      5-min Rain = 0
KWT1 262154Z 15010KT 25/08 A3008 RMK A01 T02460083  RH  035%=      5-min Rain = 0
KWT1 262155Z 14012KT 25/08 A3007 RMK A01 T02460083  RH  035%=      5-min Rain = 0
KWT1 262156Z 14013KT 25/08 A3007 RMK A01 T02460082  RH  035%=      5-min Rain = 0
KWT1 262157Z 15013KT 25/08 A3007 RMK A01 T02460084  RH  035%=      5-min Rain = 0
KWT1 262158Z 15012KT 25/08 A3007 RMK A01 T02460080  RH  035%=      5-min Rain = 0
KWT1 262159Z 15012KT 25/08 A3007 RMK A01 T02450082  RH  035%=      5-min Rain = 0
KWT1 262200Z 15012KT 25/08 A3007 RMK A01 T02450082  RH  035%=      5-min Rain = 0
KWT1 262201Z 15013KT 24/08 A3007 RMK A01 T02440084  RH  036%=      5-min Rain = 0
KWT1 262202Z 15013KT 25/08 A3007 RMK A01 T02450081  RH  035%=      5-min Rain = 0
KWT1 262203Z 15012KT 25/08 A3007 RMK A01 T02450078  RH  034%=      5-min Rain = 0
KWT1 262204Z 15010KT 25/08 A3007 RMK A01 T02450079  RH  035%=      5-min Rain = 0
KWT1 262205Z 14011KT 25/09 A3007 RMK A01 T02460087  RH  037%=      5-min Rain = 0
KWT1 262206Z 14012KT 25/08 A3007 RMK A01 T02470084  RH  035%=      5-min Rain = 0
KWT1 262207Z 16010KT 25/09 A3007 RMK A01 T02490085  RH  035%=      5-min Rain = 0
KWT1 262208Z 14009KT 25/08 A3007 RMK A01 T02490084  RH  035%=      5-min Rain = 0
KWT1 262209Z 14012KT 25/08 A3007 RMK A01 T02480081  RH  034%=      5-min Rain = 0
KWT1 262210Z 14013KT 25/08 A3007 RMK A01 T02470080  RH  034%=      5-min Rain = 0
KWT1 262211Z 14012KT 25/08 A3007 RMK A01 T02470083  RH  035%=      5-min Rain = 0
KWT1 262212Z 15014KT 25/08 A3007 RMK A01 T02480080  RH  034%=      5-min Rain = 0
KWT1 262213Z 15012KT 25/08 A3007 RMK A01 T02470078  RH  034%=      5-min Rain = 0
KWT1 262214Z 15010KT 25/08 A3007 RMK A01 T02470081  RH  035%=      5-min Rain = 0
KWT1 262215Z 16012KT 25/09 A3006 RMK A01 T02470085  RH  036%=      5-min Rain = 0
KWT1 262216Z 14013KT 25/08 A3006 RMK A01 T02470082  RH  035%=      5-min Rain = 0
KWT1 262217Z 15015KT 25/08 A3006 RMK A01 T02470081  RH  035%=      5-min Rain = 0
KWT1 262218Z 16013KT 25/08 A3006 RMK A01 T02460080  RH  035%=      5-min Rain = 0
KWT1 262219Z 16013KT 25/08 A3006 RMK A01 T02450078  RH  034%=      5-min Rain = 0
KWT1 262220Z 16011KT 24/08 A3006 RMK A01 T02440079  RH  035%=      5-min Rain = 0
KWT1 262221Z 15011G16KT 25/09 A3006 RMK A01 T02450086  RH  036%=      5-min Rain = 0
KWT1 262222Z 16015KT 25/08 A3006 RMK A01 T02460080  RH  035%=      5-min Rain = 0
KWT1 262223Z 16015KT 24/08 A3006 RMK A01 T02440078  RH  034%=      5-min Rain = 0
KWT1 262224Z 15012KT 24/08 A3006 RMK A01 T02440079  RH  035%=      5-min Rain = 0
KWT1 262225Z 15012KT 24/08 A3006 RMK A01 T02440082  RH  036%=      5-min Rain = 0
KWT1 262226Z 15011KT 25/09 A3006 RMK A01 T02460088  RH  037%=      5-min Rain = 0
KWT1 262227Z 15012KT 25/08 A3006 RMK A01 T02470084  RH  035%=      5-min Rain = 0
KWT1 262228Z 13013KT 25/09 A3006 RMK A01 T02470086  RH  036%=      5-min Rain = 0
KWT1 262229Z 15012KT 25/09 A3006 RMK A01 T02480088  RH  036%=      5-min Rain = 0
KWT1 262230Z 16010KT 25/09 A3006 RMK A01 T02480086  RH  036%=      5-min Rain = 0
KWT1 262231Z 16009KT 25/08 A3006 RMK A01 T02470081  RH  035%=      5-min Rain = 0
KWT1 262232Z 16010KT 25/09 A3006 RMK A01 T02460085  RH  036%=      5-min Rain = 0
KWT1 262233Z 16011KT 25/09 A3006 RMK A01 T02460088  RH  037%=      5-min Rain = 0
KWT1 262234Z 16013KT 25/09 A3006 RMK A01 T02470085  RH  036%=      5-min Rain = 0
KWT1 262235Z 15013KT 25/08 A3006 RMK A01 T02470083  RH  035%=      5-min Rain = 0
KWT1 262236Z 15011KT 25/09 A3006 RMK A01 T02460085  RH  036%=      5-min Rain = 0
KWT1 262237Z 14011KT 25/09 A3006 RMK A01 T02460089  RH  037%=      5-min Rain = 0
KWT1 262238Z 14012KT 25/08 A3006 RMK A01 T02480081  RH  034%=      5-min Rain = 0
KWT1 262239Z 16014KT 25/08 A3005 RMK A01 T02470084  RH  035%=      5-min Rain = 0
KWT1 262240Z 16014KT 25/08 A3005 RMK A01 T02460080  RH  035%=      5-min Rain = 0
KWT1 262241Z 16013KT 25/08 A3005 RMK A01 T02450084  RH  036%=      5-min Rain = 0
KWT1 262242Z 16011KT 25/08 A3005 RMK A01 T02460083  RH  035%=      5-min Rain = 0
KWT1 262243Z 16011KT 25/09 A3005 RMK A01 T02460085  RH  036%=      5-min Rain = 0
KWT1 262244Z 16012KT 25/08 A3005 RMK A01 T02460084  RH  035%=      5-min Rain = 0
KWT1 262245Z 16011KT 25/08 A3005 RMK A01 T02460082  RH  035%=      5-min Rain = 0
KWT1 262246Z 16012KT 25/08 A3005 RMK A01 T02460083  RH  035%=      5-min Rain = 0
KWT1 262247Z 15013KT 25/08 A3005 RMK A01 T02460083  RH  035%=      5-min Rain = 0
KWT1 262248Z 15013KT 25/08 A3005 RMK A01 T02460079  RH  034%=      5-min Rain = 0
KWT1 262249Z 15012KT 25/08 A3005 RMK A01 T02460082  RH  035%=      5-min Rain = 0
KWT1 262250Z 14012KT 25/08 A3005 RMK A01 T02460082  RH  035%=      5-min Rain = 0
KWT1 262251Z 16012KT 25/08 A3005 RMK A01 T02460081  RH  035%=      5-min Rain = 0
KWT1 262252Z 17008KT 25/08 A3005 RMK A01 T02460084  RH  036%=      5-min Rain = 0
KWT1 262253Z 17009KT 25/09 A3005 RMK A01 T02460086  RH  036%=      5-min Rain = 0
KWT1 262254Z 16009KT 25/09 A3005 RMK A01 T02460089  RH  037%=      5-min Rain = 0
KWT1 262255Z 17011KT 25/09 A3005 RMK A01 T02470089  RH  037%=      5-min Rain = 0
KWT1 262256Z 16012KT 25/09 A3005 RMK A01 T02470089  RH  037%=      5-min Rain = 0
KWT1 262257Z 15011KT 25/09 A3005 RMK A01 T02470089  RH  036%=      5-min Rain = 0
KWT1 262258Z 15013KT 25/09 A3005 RMK A01 T02470088  RH  037%=      5-min Rain = 0
KWT1 262259Z 15013KT 25/09 A3005 RMK A01 T02460086  RH  036%=      5-min Rain = 0
KWT1 262300Z 16011KT 25/09 A3005 RMK A01 T02460090  RH  037%=      5-min Rain = 0
KWT1 262301Z 17012KT 25/09 A3005 RMK A01 T02470091  RH  037%=      5-min Rain = 0
KWT1 262302Z 18012KT 25/09 A3005 RMK A01 T02470085  RH  036%=      5-min Rain = 0
KWT1 262303Z 17010KT 25/09 A3005 RMK A01 T02460085  RH  036%=      5-min Rain = 0
KWT1 262304Z 17013KT 25/09 A3005 RMK A01 T02460088  RH  037%=      5-min Rain = 0
KWT1 262305Z 17013KT 25/09 A3005 RMK A01 T02460085  RH  036%=      5-min Rain = 0
KWT1 262306Z 16013KT 25/08 A3005 RMK A01 T02450084  RH  036%=      5-min Rain = 0
KWT1 262307Z 16011KT 24/09 A3005 RMK A01 T02440085  RH  036%=      5-min Rain = 0
KWT1 262308Z 16012KT 24/09 A3005 RMK A01 T02440087  RH  037%=      5-min Rain = 0
KWT1 262309Z 17012KT 24/09 A3005 RMK A01 T02440086  RH  036%=      5-min Rain = 0
KWT1 262310Z 17011KT 24/09 A3005 RMK A01 T02440085  RH  036%=      5-min Rain = 0
KWT1 262311Z 17010KT 24/09 A3005 RMK A01 T02440088  RH  037%=      5-min Rain = 0
KWT1 262312Z 17011KT 25/09 A3005 RMK A01 T02450087  RH  037%=      5-min Rain = 0
KWT1 262313Z 16014KT 25/08 A3005 RMK A01 T02450082  RH  035%=      5-min Rain = 0
KWT1 262314Z 17015KT 25/08 A3005 RMK A01 T02450079  RH  035%=      5-min Rain = 0
KWT1 262315Z 17015KT 24/08 A3004 RMK A01 T02440076  RH  034%=      5-min Rain = 0
KWT1 262316Z 17011G17KT 24/08 A3004 RMK A01 T02430077  RH  035%=      5-min Rain = 0
KWT1 262317Z 18015KT 24/08 A3004 RMK A01 T02430077  RH  035%=      5-min Rain = 0
KWT1 262318Z 18013KT 24/08 A3004 RMK A01 T02430075  RH  034%=      5-min Rain = 0
KWT1 262319Z 18013KT 24/08 A3004 RMK A01 T02420076  RH  035%=      5-min Rain = 0
KWT1 262320Z 18014KT 24/07 A3004 RMK A01 T02420074  RH  034%=      5-min Rain = 0
KWT1 262321Z 17012KT 24/08 A3004 RMK A01 T02420080  RH  036%=      5-min Rain = 0
KWT1 262322Z 17014KT 24/08 A3004 RMK A01 T02420080  RH  035%=      5-min Rain = 0
KWT1 262323Z 17014KT 24/08 A3004 RMK A01 T02420079  RH  035%=      5-min Rain = 0
KWT1 262324Z 18015KT 24/08 A3004 RMK A01 T02420077  RH  035%=      5-min Rain = 0
KWT1 262325Z 17013KT 24/07 A3004 RMK A01 T02410074  RH  034%=      5-min Rain = 0
KWT1 262326Z 17013KT 24/08 A3004 RMK A01 T02400077  RH  035%=      5-min Rain = 0
KWT1 262327Z 17014KT 24/08 A3004 RMK A01 T02400079  RH  036%=      5-min Rain = 0
KWT1 262328Z 17012KT 24/08 A3004 RMK A01 T02410079  RH  035%=      5-min Rain = 0
KWT1 262329Z 17013KT 24/08 A3004 RMK A01 T02410078  RH  035%=      5-min Rain = 0
KWT1 262330Z 18011KT 24/08 A3004 RMK A01 T02410078  RH  035%=      5-min Rain = 0
KWT1 262331Z 17013KT 24/08 A3003 RMK A01 T02410078  RH  035%=      5-min Rain = 0
KWT1 262332Z 17010KT 24/08 A3004 RMK A01 T02410080  RH  036%=      5-min Rain = 0
KWT1 262333Z 17011KT 24/08 A3004 RMK A01 T02410081  RH  036%=      5-min Rain = 0
KWT1 262334Z 17011KT 24/08 A3004 RMK A01 T02410081  RH  036%=      5-min Rain = 0
KWT1 262335Z 18015KT 24/08 A3004 RMK A01 T02410079  RH  035%=      5-min Rain = 0
KWT1 262336Z 18013KT 24/08 A3003 RMK A01 T02410076  RH  035%=      5-min Rain = 0
KWT1 262337Z 17013KT 24/08 A3003 RMK A01 T02400078  RH  035%=      5-min Rain = 0
KWT1 262338Z 16012KT 24/08 A3004 RMK A01 T02400078  RH  035%=      5-min Rain = 0
KWT1 262339Z 17012KT 24/08 A3004 RMK A01 T02400079  RH  036%=      5-min Rain = 0
KWT1 262340Z 18011KT 24/08 A3003 RMK A01 T02400080  RH  036%=      5-min Rain = 0
KWT1 262341Z 17011KT 24/08 A3003 RMK A01 T02400080  RH  036%=      5-min Rain = 0
KWT1 262342Z 16011KT 24/08 A3003 RMK A01 T02400084  RH  037%=      5-min Rain = 0
KWT1 262343Z 17009G14KT 24/08 A3003 RMK A01 T02410084  RH  037%=      5-min Rain = 0
KWT1 262344Z 17013KT 24/08 A3003 RMK A01 T02410082  RH  036%=      5-min Rain = 0
KWT1 262345Z 17017KT 24/08 A3003 RMK A01 T02400079  RH  036%=      5-min Rain = 0
KWT1 262346Z 17015KT 24/08 A3003 RMK A01 T02400079  RH  036%=      5-min Rain = 0
KWT1 262347Z 17014KT 24/08 A3003 RMK A01 T02380078  RH  036%=      5-min Rain = 0
KWT1 262348Z 17012KT 24/08 A3003 RMK A01 T02380079  RH  036%=      5-min Rain = 0
KWT1 262349Z 17014KT 24/08 A3003 RMK A01 T02380079  RH  036%=      5-min Rain = 0
KWT1 262350Z 16013KT 24/08 A3003 RMK A01 T02370076  RH  036%=      5-min Rain = 0
KWT1 262351Z 17011KT 24/08 A3003 RMK A01 T02370078  RH  036%=      5-min Rain = 0
KWT1 262352Z 17011KT 24/08 A3003 RMK A01 T02370084  RH  038%=      5-min Rain = 0
KWT1 262353Z 17013KT 24/08 A3003 RMK A01 T02370083  RH  037%=      5-min Rain = 0
KWT1 262354Z 17012KT 24/08 A3003 RMK A01 T02380083  RH  037%=      5-min Rain = 0
KWT1 262355Z 17012KT 24/08 A3003 RMK A01 T02370084  RH  038%=      5-min Rain = 0
KWT1 262356Z 16013G19KT 24/09 A3002 RMK A01 T02370085  RH  038%=      5-min Rain = 0
KWT1 262357Z 16016KT 24/08 A3002 RMK A01 T02370083  RH  037%=      5-min Rain = 0
KWT1 262358Z 16014KT 24/08 A3002 RMK A01 T02370084  RH  038%=      5-min Rain = 0
KWT1 262359Z 16016KT 24/08 A3002 RMK A01 T02360084  RH  038%=      5-min Rain = 0
KWT1 270000Z 17012KT 23/08 A3002 RMK A01 T02340084  RH  038%=      5-min Rain = 0
KWT1 270001Z 17013KT 23/08 A3002 RMK A01 T02330083  RH  038%=      5-min Rain = 0
KWT1 270002Z 17011KT 23/08 A3002 RMK A01 T02330081  RH  038%=      5-min Rain = 0
KWT1 270003Z 17013KT 23/08 A3002 RMK A01 T02320082  RH  038%=      5-min Rain = 0
KWT1 270004Z 16012KT 23/08 A3002 RMK A01 T02330081  RH  038%=      5-min Rain = 0
KWT1 270005Z 17011KT 23/08 A3002 RMK A01 T02330082  RH  038%=      5-min Rain = 0
KWT1 270006Z 17012KT 23/08 A3002 RMK A01 T02330082  RH  038%=      5-min Rain = 0
KWT1 270007Z 17010KT 23/08 A3002 RMK A01 T02340082  RH  038%=      5-min Rain = 0
KWT1 270008Z 17011G16KT 23/08 A3003 RMK A01 T02340083  RH  038%=      5-min Rain = 0
KWT1 270009Z 17014KT 23/08 A3002 RMK A01 T02340081  RH  037%=      5-min Rain = 0
KWT1 270010Z 17012KT 23/08 A3003 RMK A01 T02330082  RH  038%=      5-min Rain = 0
KWT1 270011Z 17014KT 23/08 A3002 RMK A01 T02330083  RH  038%=      5-min Rain = 0
KWT1 270012Z 17014KT 23/08 A3002 RMK A01 T02320083  RH  038%=      5-min Rain = 0
KWT1 270013Z 17010G15KT 23/08 A3002 RMK A01 T02320083  RH  038%=      5-min Rain = 0
KWT1 270014Z 16009KT 23/09 A3002 RMK A01 T02320086  RH  039%=      5-min Rain = 0
KWT1 270015Z 16013KT 23/09 A3002 RMK A01 T02320087  RH  039%=      5-min Rain = 0
KWT1 270016Z 17014KT 23/08 A3002 RMK A01 T02310081  RH  038%=      5-min Rain = 0
KWT1 270017Z 16014KT 23/08 A3002 RMK A01 T02310082  RH  038%=      5-min Rain = 0
KWT1 270018Z 16012KT 23/08 A3002 RMK A01 T02310084  RH  039%=      5-min Rain = 0
KWT1 270019Z 16012KT 23/09 A3002 RMK A01 T02300085  RH  039%=      5-min Rain = 0
KWT1 270020Z 16013KT 23/08 A3002 RMK A01 T02300084  RH  039%=      5-min Rain = 0
KWT1 270021Z 16011KT 23/08 A3002 RMK A01 T02300084  RH  039%=      5-min Rain = 0
KWT1 270022Z 16011KT 23/09 A3002 RMK A01 T02300086  RH  040%=      5-min Rain = 0
KWT1 270023Z 16014KT 23/08 A3002 RMK A01 T02290082  RH  039%=      5-min Rain = 0
KWT1 270024Z 16012KT 23/08 A3002 RMK A01 T02290082  RH  039%=      5-min Rain = 0
KWT1 270025Z 16014KT 23/08 A3002 RMK A01 T02290082  RH  039%=      5-min Rain = 0
KWT1 270026Z 17014KT 23/08 A3002 RMK A01 T02290081  RH  039%=      5-min Rain = 0
KWT1 270027Z 16009KT 23/08 A3002 RMK A01 T02280083  RH  039%=      5-min Rain = 0
KWT1 270028Z 16011KT 23/08 A3002 RMK A01 T02280084  RH  040%=      5-min Rain = 0
KWT1 270029Z 16012G17KT 23/09 A3002 RMK A01 T02270085  RH  040%=      5-min Rain = 0
KWT1 270030Z 16013KT 23/08 A3001 RMK A01 T02270084  RH  040%=      5-min Rain = 0
KWT1 270031Z 16014KT 23/08 A3001 RMK A01 T02260082  RH  040%=      5-min Rain = 0
KWT1 270032Z 16011KT 23/08 A3001 RMK A01 T02260083  RH  040%=      5-min Rain = 0
KWT1 270033Z 16011KT 23/08 A3001 RMK A01 T02260083  RH  040%=      5-min Rain = 0
KWT1 270034Z 17011KT 23/09 A3001 RMK A01 T02250085  RH  040%=      5-min Rain = 0
KWT1 270035Z 16011KT 23/09 A3001 RMK A01 T02250085  RH  041%=      5-min Rain = 0
KWT1 270036Z 17011KT 23/08 A3001 RMK A01 T02250084  RH  041%=      5-min Rain = 0
KWT1 270037Z 17012KT 22/09 A3001 RMK A01 T02240085  RH  041%=      5-min Rain = 0
KWT1 270038Z 17010KT 22/09 A3001 RMK A01 T02240085  RH  041%=      5-min Rain = 0
KWT1 270039Z 17009KT 22/09 A3001 RMK A01 T02240087  RH  041%=      5-min Rain = 0
KWT1 270040Z 16010KT 22/09 A3001 RMK A01 T02230088  RH  042%=      5-min Rain = 0
KWT1 270041Z 17010KT 22/09 A3001 RMK A01 T02230089  RH  042%=      5-min Rain = 0
KWT1 270042Z 16011KT 22/09 A3001 RMK A01 T02220089  RH  043%=      5-min Rain = 0
KWT1 270043Z 17013KT 22/09 A3001 RMK A01 T02220086  RH  042%=      5-min Rain = 0
KWT1 270044Z 17013G18KT 22/08 A3001 RMK A01 T02220084  RH  041%=      5-min Rain = 0
KWT1 270045Z 17011G16KT 22/09 A3001 RMK A01 T02210086  RH  042%=      5-min Rain = 0
KWT1 270046Z 16013KT 22/09 A3001 RMK A01 T02210085  RH  042%=      5-min Rain = 0
KWT1 270047Z 17012KT 22/09 A3001 RMK A01 T02210085  RH  042%=      5-min Rain = 0
KWT1 270048Z 17010KT 22/09 A3001 RMK A01 T02200086  RH  042%=      5-min Rain = 0
KWT1 270049Z 17011KT 22/09 A3001 RMK A01 T02190086  RH  042%=      5-min Rain = 0
KWT1 270050Z 17013KT 22/09 A3001 RMK A01 T02190086  RH  042%=      5-min Rain = 0
KWT1 270051Z 17014KT 22/09 A30 RMK A01 T02190085  RH  042%=      5-min Rain = 0
KWT1 270052Z 17011KT 22/09 A30 RMK A01 T02190085  RH  042%=      5-min Rain = 0
KWT1 270053Z 17011KT 22/09 A30 RMK A01 T02190087  RH  043%=      5-min Rain = 0
KWT1 270054Z 17014KT 22/09 A30 RMK A01 T02180085  RH  043%=      5-min Rain = 0
KWT1 270055Z 17011KT 22/09 A30 RMK A01 T02180086  RH  043%=      5-min Rain = 0
KWT1 270056Z 17011KT 22/09 A30 RMK A01 T02170087  RH  043%=      5-min Rain = 0
KWT1 270057Z 17012KT 22/09 A30 RMK A01 T02160088  RH  044%=      5-min Rain = 0
KWT1 270058Z 17012KT 22/09 A30 RMK A01 T02160087  RH  044%=      5-min Rain = 0
KWT1 270059Z 17010KT 22/09 A30 RMK A01 T02150088  RH  044%=      5-min Rain = 0
KWT1 270100Z 17010KT 21/09 A30 RMK A01 T02140088  RH  045%=      5-min Rain = 0
KWT1 270101Z 17011KT 21/09 A30 RMK A01 T02140088  RH  045%=      5-min Rain = 0
KWT1 270102Z 17012KT 21/09 A30 RMK A01 T02130087  RH  045%=      5-min Rain = 0
KWT1 270103Z 17009KT 21/09 A30 RMK A01 T02130088  RH  045%=      5-min Rain = 0
KWT1 270104Z 17012KT 21/09 A30 RMK A01 T02120089  RH  045%=      5-min Rain = 0
KWT1 270105Z 17012KT 21/09 A30 RMK A01 T02110088  RH  045%=      5-min Rain = 0
KWT1 270106Z 16011KT 21/09 A30 RMK A01 T02110088  RH  045%=      5-min Rain = 0
KWT1 270107Z 16010KT 21/09 A30 RMK A01 T02110088  RH  045%=      5-min Rain = 0
KWT1 270108Z 17011KT 21/09 A30 RMK A01 T02110089  RH  046%=      5-min Rain = 0
KWT1 270109Z 17009KT 21/09 A30 RMK A01 T02100089  RH  046%=      5-min Rain = 0
KWT1 270110Z 16009KT 21/09 A30 RMK A01 T02100090  RH  046%=      5-min Rain = 0
KWT1 270111Z 16010KT 21/09 A30 RMK A01 T02090089  RH  046%=      5-min Rain = 0
KWT1 270112Z 16009KT 21/09 A30 RMK A01 T02080089  RH  046%=      5-min Rain = 0
KWT1 270113Z 16011KT 21/09 A30 RMK A01 T02080088  RH  046%=      5-min Rain = 0
KWT1 270114Z 17011KT 21/09 A30 RMK A01 T02080088  RH  046%=      5-min Rain = 0
KWT1 270115Z 16011KT 21/09 A30 RMK A01 T02080087  RH  046%=      5-min Rain = 0
KWT1 270116Z 17009KT 21/09 A30 RMK A01 T02080088  RH  046%=      5-min Rain = 0
KWT1 270117Z 16010KT 21/09 A30 RMK A01 T02080089  RH  046%=      5-min Rain = 0
KWT1 270118Z 16009KT 21/09 A30 RMK A01 T02070089  RH  047%=      5-min Rain = 0
KWT1 270119Z 16009KT 21/09 A30 RMK A01 T02060089  RH  047%=      5-min Rain = 0
KWT1 270120Z 16008KT 21/09 A30 RMK A01 T02050089  RH  047%=      5-min Rain = 0
KWT1 270121Z 16008KT 21/09 A30 RMK A01 T02050090  RH  048%=      5-min Rain = 0
KWT1 270122Z 16008KT 20/09 A30 RMK A01 T02040090  RH  048%=      5-min Rain = 0
KWT1 270123Z 16007KT 20/09 A30 RMK A01 T02030091  RH  048%=      5-min Rain = 0
KWT1 270124Z 16007KT 20/09 A30 RMK A01 T02020091  RH  049%=      5-min Rain = 0
KWT1 270125Z 15007KT 20/09 A30 RMK A01 T02010092  RH  049%=      5-min Rain = 0
KWT1 270126Z 15006KT 20/09 A30 RMK A01 T02000092  RH  050%=      5-min Rain = 0
KWT1 270127Z 15006KT 20/09 A30 RMK A01 T01990093  RH  050%=      5-min Rain = 0
KWT1 270128Z 15007KT 20/09 A30 RMK A01 T01980093  RH  051%=      5-min Rain = 0
KWT1 270129Z 15007KT 20/09 A30 RMK A01 T01970093  RH  051%=      5-min Rain = 0
KWT1 270130Z 15007KT 20/09 A30 RMK A01 T01970092  RH  051%=      5-min Rain = 0
KWT1 270131Z 15007KT 20/09 A30 RMK A01 T01970093  RH  051%=      5-min Rain = 0
KWT1 270132Z 15007KT 20/09 A30 RMK A01 T01960092  RH  051%=      5-min Rain = 0
KWT1 270133Z 16006KT 20/09 A30 RMK A01 T01950093  RH  052%=      5-min Rain = 0
KWT1 270134Z 15007KT 19/09 A30 RMK A01 T01940093  RH  052%=      5-min Rain = 0
KWT1 270135Z 16008KT 19/09 A30 RMK A01 T01940093  RH  052%=      5-min Rain = 0
KWT1 270136Z 16007KT 19/09 A30 RMK A01 T01940093  RH  052%=      5-min Rain = 0
KWT1 270137Z 16008KT 19/09 A30 RMK A01 T01940092  RH  052%=      5-min Rain = 0
KWT1 270138Z 16007KT 19/09 A30 RMK A01 T01930092  RH  052%=      5-min Rain = 0
KWT1 270139Z 16007KT 19/09 A30 RMK A01 T01930092  RH  052%=      5-min Rain = 0
KWT1 270140Z 16008KT 19/09 A30 RMK A01 T01930092  RH  052%=      5-min Rain = 0
KWT1 270141Z 16008KT 19/09 A30 RMK A01 T01930091  RH  052%=      5-min Rain = 0
KWT1 270142Z 16008KT 19/09 A30 RMK A01 T01930091  RH  052%=      5-min Rain = 0
KWT1 270143Z 16008KT 19/09 A30 RMK A01 T01940091  RH  051%=      5-min Rain = 0
KWT1 270144Z 16009KT 19/09 A30 RMK A01 T01940091  RH  051%=      5-min Rain = 0
KWT1 270145Z 16008KT 19/09 A30 RMK A01 T01930091  RH  051%=      5-min Rain = 0
KWT1 270146Z 16009KT 19/09 A3001 RMK A01 T01930090  RH  051%=      5-min Rain = 0
KWT1 270147Z 16008KT 19/09 A3001 RMK A01 T01930090  RH  051%=      5-min Rain = 0
KWT1 270148Z 16008KT 19/09 A3001 RMK A01 T01930090  RH  052%=      5-min Rain = 0
KWT1 270149Z 16008KT 19/09 A3001 RMK A01 T01920090  RH  052%=      5-min Rain = 0
KWT1 270150Z 16008KT 19/09 A3001 RMK A01 T01920090  RH  052%=      5-min Rain = 0
KWT1 270151Z 16009KT 19/09 A3001 RMK A01 T01910090  RH  052%=      5-min Rain = 0
KWT1 270152Z 16008KT 19/09 A3001 RMK A01 T01910090  RH  052%=      5-min Rain = 0
KWT1 270153Z 16008KT 19/09 A3001 RMK A01 T01900090  RH  052%=      5-min Rain = 0
KWT1 270154Z 16008KT 19/09 A3001 RMK A01 T01900090  RH  052%=      5-min Rain = 0
KWT1 270155Z 16008KT 19/09 A3001 RMK A01 T01900090  RH  052%=      5-min Rain = 0
KWT1 270156Z 16008KT 19/09 A3001 RMK A01 T01890090  RH  052%=      5-min Rain = 0
KWT1 270157Z 16008KT 19/09 A3001 RMK A01 T01890090  RH  053%=      5-min Rain = 0
KWT1 270158Z 16008KT 19/09 A3001 RMK A01 T01890090  RH  053%=      5-min Rain = 0
KWT1 270159Z 16008KT 19/09 A3001 RMK A01 T01880090  RH  053%=      5-min Rain = 0
KWT1 270200Z 16008KT 19/09 A3001 RMK A01 T01870090  RH  053%=      5-min Rain = 0
KWT1 270201Z 16008KT 19/09 A3001 RMK A01 T01870090  RH  053%=      5-min Rain = 0
KWT1 270202Z 16008KT 19/09 A3001 RMK A01 T01870090  RH  053%=      5-min Rain = 0
KWT1 270203Z 16008KT 19/09 A3001 RMK A01 T01870091  RH  054%=      5-min Rain = 0
KWT1 270204Z 16008KT 19/09 A3001 RMK A01 T01860091  RH  054%=      5-min Rain = 0
KWT1 270205Z 17008KT 19/09 A3001 RMK A01 T01850090  RH  054%=      5-min Rain = 0
KWT1 270206Z 16008KT 19/09 A3001 RMK A01 T01850091  RH  054%=      5-min Rain = 0
KWT1 270207Z 16008KT 18/09 A3001 RMK A01 T01840091  RH  054%=      5-min Rain = 0
KWT1 270208Z 16008KT 18/09 A3001 RMK A01 T01840091  RH  054%=      5-min Rain = 0
KWT1 270209Z 17008KT 18/09 A3001 RMK A01 T01840091  RH  055%=      5-min Rain = 0
KWT1 270210Z 16008KT 18/09 A3001 RMK A01 T01830091  RH  055%=      5-min Rain = 0
KWT1 270211Z 16008KT 18/09 A3001 RMK A01 T01820091  RH  055%=      5-min Rain = 0
KWT1 270212Z 16008KT 18/09 A3001 RMK A01 T01820091  RH  055%=      5-min Rain = 0
KWT1 270213Z 16008KT 18/09 A3001 RMK A01 T01820091  RH  056%=      5-min Rain = 0
KWT1 270214Z 16008KT 18/09 A3001 RMK A01 T01810092  RH  056%=      5-min Rain = 0
KWT1 270215Z 16008KT 18/09 A3001 RMK A01 T01810092  RH  056%=      5-min Rain = 0
KWT1 270216Z 16008KT 18/09 A30 RMK A01 T01810092  RH  056%=      5-min Rain = 0
KWT1 270217Z 17009KT 18/09 A30 RMK A01 T01810092  RH  056%=      5-min Rain = 0
KWT1 270218Z 17009KT 18/09 A3001 RMK A01 T01800091  RH  056%=      5-min Rain = 0
KWT1 270219Z 17009KT 18/09 A3001 RMK A01 T01800092  RH  056%=      5-min Rain = 0
KWT1 270220Z 17008KT 18/09 A3001 RMK A01 T01800092  RH  056%=      5-min Rain = 0
KWT1 270221Z 17008KT 18/09 A3001 RMK A01 T01800092  RH  056%=      5-min Rain = 0
KWT1 270222Z 17008KT 18/09 A3001 RMK A01 T01800092  RH  056%=      5-min Rain = 0
KWT1 270223Z 17009KT 18/09 A3001 RMK A01 T01800091  RH  056%=      5-min Rain = 0
KWT1 270224Z 17009KT 18/09 A3001 RMK A01 T01810091  RH  056%=      5-min Rain = 0
KWT1 270225Z 17009KT 18/09 A3001 RMK A01 T01810091  RH  056%=      5-min Rain = 0
KWT1 270226Z 17009KT 18/09 A3001 RMK A01 T01820091  RH  055%=      5-min Rain = 0
KWT1 270227Z 17009KT 18/09 A3001 RMK A01 T01820091  RH  055%=      5-min Rain = 0
KWT1 270228Z 17010KT 18/09 A3001 RMK A01 T01820091  RH  055%=      5-min Rain = 0
KWT1 270229Z 17009KT 18/09 A3001 RMK A01 T01830091  RH  055%=      5-min Rain = 0
KWT1 270230Z 16009KT 18/09 A3001 RMK A01 T01830091  RH  055%=      5-min Rain = 0
KWT1 270231Z 16010KT 18/09 A3001 RMK A01 T01840092  RH  055%=      5-min Rain = 0
KWT1 270232Z 16010KT 18/09 A3001 RMK A01 T01840092  RH  055%=      5-min Rain = 0
KWT1 270233Z 16010KT 18/09 A30 RMK A01 T01830092  RH  055%=      5-min Rain = 0
KWT1 270234Z 17009KT 18/09 A30 RMK A01 T01830092  RH  055%=      5-min Rain = 0
KWT1 270235Z 17010KT 18/09 A30 RMK A01 T01830092  RH  055%=      5-min Rain = 0
KWT1 270236Z 17010KT 18/09 A30 RMK A01 T01820092  RH  056%=      5-min Rain = 0
KWT1 270237Z 16009KT 18/09 A30 RMK A01 T01810092  RH  056%=      5-min Rain = 0
KWT1 270238Z 16009KT 18/09 A30 RMK A01 T01810093  RH  056%=      5-min Rain = 0
KWT1 270239Z 16010KT 18/09 A30 RMK A01 T01800092  RH  056%=      5-min Rain = 0
KWT1 270240Z 17009KT 18/09 A30 RMK A01 T01810093  RH  057%=      5-min Rain = 0
KWT1 270241Z 16009KT 18/09 A3001 RMK A01 T01800093  RH  057%=      5-min Rain = 0
KWT1 270242Z 16009KT 18/09 A3001 RMK A01 T01800092  RH  056%=      5-min Rain = 0
KWT1 270243Z 17008KT 18/09 A3001 RMK A01 T01800092  RH  056%=      5-min Rain = 0
KWT1 270244Z 16008KT 18/09 A3001 RMK A01 T01800093  RH  057%=      5-min Rain = 0
KWT1 270245Z 16008KT 18/09 A3001 RMK A01 T01790093  RH  057%=      5-min Rain = 0
KWT1 270246Z 16009KT 18/09 A3001 RMK A01 T01790093  RH  057%=      5-min Rain = 0
KWT1 270247Z 16008KT 18/09 A3001 RMK A01 T01790093  RH  057%=      5-min Rain = 0
KWT1 270248Z 16009KT 18/09 A3001 RMK A01 T01790093  RH  057%=      5-min Rain = 0
KWT1 270249Z 17008KT 18/09 A3001 RMK A01 T01790093  RH  057%=      5-min Rain = 0
KWT1 270250Z 16008KT 18/09 A3001 RMK A01 T01790093  RH  057%=      5-min Rain = 0
KWT1 270251Z 16008KT 18/09 A3001 RMK A01 T01790093  RH  057%=      5-min Rain = 0
KWT1 270252Z 16008KT 18/09 A3001 RMK A01 T01790093  RH  057%=      5-min Rain = 0
KWT1 270253Z 16008KT 18/09 A3001 RMK A01 T01780093  RH  057%=      5-min Rain = 0
KWT1 270254Z 17008KT 18/09 A3001 RMK A01 T01780093  RH  057%=      5-min Rain = 0
KWT1 270255Z 17007KT 18/09 A3001 RMK A01 T01780094  RH  058%=      5-min Rain = 0
KWT1 270256Z 16008KT 18/09 A3001 RMK A01 T01780094  RH  058%=      5-min Rain = 0
KWT1 270257Z 16008KT 18/09 A3001 RMK A01 T01780094  RH  058%=      5-min Rain = 0
KWT1 270258Z 17007KT 18/09 A3001 RMK A01 T01770093  RH  058%=      5-min Rain = 0
KWT1 270259Z 16007KT 18/09 A3001 RMK A01 T01770093  RH  058%=      5-min Rain = 0
KWT1 270300Z 17007KT 18/09 A3001 RMK A01 T01770094  RH  058%=      5-min Rain = 0
KWT1 270301Z 17007KT 18/09 A3001 RMK A01 T01770094  RH  058%=      5-min Rain = 0
KWT1 270302Z 17007KT 18/09 A3001 RMK A01 T01770094  RH  058%=      5-min Rain = 0
KWT1 270303Z 17007KT 18/09 A3001 RMK A01 T01760093  RH  058%=      5-min Rain = 0
KWT1 270304Z 17008KT 18/09 A3001 RMK A01 T01760094  RH  059%=      5-min Rain = 0
KWT1 270305Z 17008KT 18/09 A3001 RMK A01 T01760094  RH  059%=      5-min Rain = 0
KWT1 270306Z 17008KT 18/09 A3001 RMK A01 T01750094  RH  059%=      5-min Rain = 0
KWT1 270307Z 17008KT 18/09 A3001 RMK A01 T01760094  RH  059%=      5-min Rain = 0
KWT1 270308Z 17008KT 18/10 A3001 RMK A01 T01750095  RH  059%=      5-min Rain = 0
KWT1 270309Z 17007KT 18/10 A3001 RMK A01 T01750095  RH  059%=      5-min Rain = 0
KWT1 270310Z 17008KT 17/10 A3001 RMK A01 T01740095  RH  060%=      5-min Rain = 0
KWT1 270311Z 16008KT 17/09 A3001 RMK A01 T01740094  RH  060%=      5-min Rain = 0
KWT1 270312Z 17009KT 17/09 A3001 RMK A01 T01740094  RH  060%=      5-min Rain = 0
KWT1 270313Z 17008KT 17/09 A3001 RMK A01 T01740094  RH  060%=      5-min Rain = 0
KWT1 270314Z 16008KT 17/10 A3001 RMK A01 T01740095  RH  060%=      5-min Rain = 0
KWT1 270315Z 16009KT 17/10 A3001 RMK A01 T01740095  RH  060%=      5-min Rain = 0
KWT1 270316Z 16009KT 17/10 A3001 RMK A01 T01740095  RH  060%=      5-min Rain = 0
KWT1 270317Z 16008KT 17/10 A3001 RMK A01 T01740095  RH  060%=      5-min Rain = 0
KWT1 270318Z 16007KT 17/10 A3001 RMK A01 T01740095  RH  060%=      5-min Rain = 0
KWT1 270319Z 16007KT 17/10 A3001 RMK A01 T01730095  RH  060%=      5-min Rain = 0
KWT1 270320Z 16008KT 17/10 A3001 RMK A01 T01730095  RH  060%=      5-min Rain = 0
KWT1 270321Z 16008KT 17/10 A3001 RMK A01 T01730095  RH  060%=      5-min Rain = 0
KWT1 270322Z 16008KT 17/10 A3001 RMK A01 T01730095  RH  060%=      5-min Rain = 0
KWT1 270323Z 16008KT 17/10 A3001 RMK A01 T01730095  RH  060%=      5-min Rain = 0
KWT1 270324Z 16008KT 17/10 A3001 RMK A01 T01720095  RH  060%=      5-min Rain = 0
KWT1 270325Z 16008KT 17/10 A3001 RMK A01 T01720095  RH  061%=      5-min Rain = 0
KWT1 270326Z 16008KT 17/10 A3001 RMK A01 T01710095  RH  061%=      5-min Rain = 0
KWT1 270327Z 16008KT 17/10 A3001 RMK A01 T01710095  RH  061%=      5-min Rain = 0
KWT1 270328Z 16008KT 17/10 A3001 RMK A01 T01700095  RH  061%=      5-min Rain = 0
KWT1 270329Z 16008KT 17/10 A3001 RMK A01 T01700095  RH  061%=      5-min Rain = 0
KWT1 270330Z 16008KT 17/10 A3001 RMK A01 T01700096  RH  062%=      5-min Rain = 0
KWT1 270331Z 16008KT 17/10 A3001 RMK A01 T01690096  RH  062%=      5-min Rain = 0
KWT1 270332Z 16008KT 17/10 A3001 RMK A01 T01690096  RH  062%=      5-min Rain = 0
KWT1 270333Z 16008KT 17/10 A3001 RMK A01 T01690096  RH  062%=      5-min Rain = 0
KWT1 270334Z 16008KT 17/10 A3001 RMK A01 T01690096  RH  062%=      5-min Rain = 0
KWT1 270335Z 16008KT 17/10 A3001 RMK A01 T01680096  RH  062%=      5-min Rain = 0
KWT1 270336Z 16008KT 17/10 A3001 RMK A01 T01680096  RH  062%=      5-min Rain = 0
KWT1 270337Z 16008KT 17/10 A3001 RMK A01 T01680096  RH  063%=      5-min Rain = 0
KWT1 270338Z 16009KT 17/10 A30 RMK A01 T01670096  RH  063%=      5-min Rain = 0
KWT1 270339Z 16009KT 17/10 A30 RMK A01 T01670096  RH  063%=      5-min Rain = 0
KWT1 270340Z 16008KT 17/10 A30 RMK A01 T01670097  RH  063%=      5-min Rain = 0
KWT1 270341Z 16008KT 17/10 A30 RMK A01 T01670097  RH  063%=      5-min Rain = 0
KWT1 270342Z 16008KT 17/10 A30 RMK A01 T01670097  RH  063%=      5-min Rain = 0
KWT1 270343Z 16008KT 17/10 A30 RMK A01 T01660096  RH  063%=      5-min Rain = 0
KWT1 270344Z 16009KT 17/10 A30 RMK A01 T01660096  RH  063%=      5-min Rain = 0
KWT1 270345Z 16009KT 17/10 A30 RMK A01 T01660096  RH  063%=      5-min Rain = 0
KWT1 270346Z 16009KT 17/10 A30 RMK A01 T01660096  RH  063%=      5-min Rain = 0
KWT1 270347Z 16009KT 17/10 A30 RMK A01 T01660096  RH  063%=      5-min Rain = 0
KWT1 270348Z 16009KT 17/10 A30 RMK A01 T01670096  RH  063%=      5-min Rain = 0
KWT1 270349Z 16009KT 17/10 A30 RMK A01 T01670096  RH  063%=      5-min Rain = 0
KWT1 270350Z 17010KT 17/10 A30 RMK A01 T01670095  RH  063%=      5-min Rain = 0
KWT1 270351Z 17009KT 17/09 A30 RMK A01 T01670094  RH  062%=      5-min Rain = 0
KWT1 270352Z 16010KT 17/10 A30 RMK A01 T01680095  RH  062%=      5-min Rain = 0
KWT1 270353Z 17010KT 17/09 A30 RMK A01 T01680094  RH  062%=      5-min Rain = 0
KWT1 270354Z 16010KT 17/09 A30 RMK A01 T01680094  RH  062%=      5-min Rain = 0
KWT1 270355Z 17010KT 17/09 A30 RMK A01 T01690094  RH  061%=      5-min Rain = 0
KWT1 270356Z 16011KT 17/09 A30 RMK A01 T01690093  RH  061%=      5-min Rain = 0
KWT1 270357Z 17011KT 17/09 A30 RMK A01 T01700093  RH  060%=      5-min Rain = 0
KWT1 270358Z 16010KT 17/09 A30 RMK A01 T01700093  RH  060%=      5-min Rain = 0
KWT1 270359Z 17010KT 17/09 A30 RMK A01 T01710093  RH  060%=      5-min Rain = 0
KWT1 270400Z 17010KT 17/09 A30 RMK A01 T01710093  RH  060%=      5-min Rain = 0
KWT1 270401Z 17010KT 17/09 A30 RMK A01 T01710092  RH  060%=      5-min Rain = 0
KWT1 270402Z 17010KT 17/09 A30 RMK A01 T01710093  RH  060%=      5-min Rain = 0
KWT1 270403Z 16010KT 17/09 A30 RMK A01 T01710092  RH  060%=      5-min Rain = 0
KWT1 270404Z 17009KT 17/09 A30 RMK A01 T01720093  RH  060%=      5-min Rain = 0
KWT1 270405Z 16010KT 17/09 A30 RMK A01 T01710092  RH  060%=      5-min Rain = 0
KWT1 270406Z 17010KT 17/09 A30 RMK A01 T01720093  RH  060%=      5-min Rain = 0
KWT1 270407Z 17010KT 17/09 A30 RMK A01 T01710092  RH  060%=      5-min Rain = 0
KWT1 270408Z 17010KT 17/09 A30 RMK A01 T01720092  RH  060%=      5-min Rain = 0
KWT1 270409Z 17009KT 17/09 A30 RMK A01 T01710092  RH  060%=      5-min Rain = 0
KWT1 270410Z 17011KT 17/09 A30 RMK A01 T01710092  RH  060%=      5-min Rain = 0
KWT1 270411Z 17010KT 17/09 A30 RMK A01 T01710092  RH  060%=      5-min Rain = 0
KWT1 270412Z 17008KT 17/09 A30 RMK A01 T01720092  RH  060%=      5-min Rain = 0
KWT1 270413Z 17008KT 17/09 A30 RMK A01 T01710092  RH  060%=      5-min Rain = 0
KWT1 270414Z 17008KT 17/09 A30 RMK A01 T01710093  RH  060%=      5-min Rain = 0
KWT1 270415Z 17009KT 17/09 A30 RMK A01 T01710093  RH  060%=      5-min Rain = 0
KWT1 270416Z 17008KT 17/09 A30 RMK A01 T01710092  RH  060%=      5-min Rain = 0
KWT1 270417Z 17008KT 17/09 A30 RMK A01 T01710093  RH  060%=      5-min Rain = 0
KWT1 270418Z 17009KT 17/09 A30 RMK A01 T01700093  RH  060%=      5-min Rain = 0
KWT1 270419Z 17009KT 17/09 A30 RMK A01 T01700093  RH  060%=      5-min Rain = 0
KWT1 270420Z 17008KT 17/09 A30 RMK A01 T01700093  RH  060%=      5-min Rain = 0
KWT1 270421Z 17008KT 17/09 A30 RMK A01 T01700093  RH  060%=      5-min Rain = 0
KWT1 270422Z 17009KT 17/09 A30 RMK A01 T01700093  RH  060%=      5-min Rain = 0
KWT1 270423Z 17008KT 17/09 A30 RMK A01 T01700093  RH  060%=      5-min Rain = 0
KWT1 270424Z 17008KT 17/09 A30 RMK A01 T01700093  RH  061%=      5-min Rain = 0
KWT1 270425Z 17009KT 17/09 A30 RMK A01 T01690093  RH  061%=      5-min Rain = 0
KWT1 270426Z 16009KT 17/09 A30 RMK A01 T01690093  RH  061%=      5-min Rain = 0
KWT1 270427Z 17010KT 17/09 A2999 RMK A01 T01690093  RH  061%=      5-min Rain = 0
KWT1 270428Z 17009KT 17/09 A2999 RMK A01 T01680093  RH  061%=      5-min Rain = 0
KWT1 270429Z 17010KT 17/09 A2999 RMK A01 T01680093  RH  061%=      5-min Rain = 0
KWT1 270430Z 17008KT 17/09 A2999 RMK A01 T01680093  RH  061%=      5-min Rain = 0
KWT1 270431Z 17008KT 17/09 A2999 RMK A01 T01680094  RH  061%=      5-min Rain = 0
KWT1 270432Z 17008KT 17/09 A2999 RMK A01 T01680093  RH  061%=      5-min Rain = 0
KWT1 270433Z 17007KT 17/09 A2999 RMK A01 T01680094  RH  062%=      5-min Rain = 0
KWT1 270434Z 17008KT 17/09 A2999 RMK A01 T01680094  RH  062%=      5-min Rain = 0
KWT1 270435Z 17008KT 17/09 A2999 RMK A01 T01670093  RH  062%=      5-min Rain = 0
KWT1 270436Z 17007KT 17/09 A2999 RMK A01 T01670094  RH  062%=      5-min Rain = 0
KWT1 270437Z 17008KT 17/09 A2999 RMK A01 T01670094  RH  062%=      5-min Rain = 0
KWT1 270438Z 17008KT 17/09 A2999 RMK A01 T01670094  RH  062%=      5-min Rain = 0
KWT1 270439Z 17007KT 17/09 A2999 RMK A01 T01660094  RH  062%=      5-min Rain = 0
KWT1 270440Z 17007KT 17/09 A2999 RMK A01 T01660094  RH  062%=      5-min Rain = 0
KWT1 270441Z 17007KT 17/09 A2999 RMK A01 T01650094  RH  063%=      5-min Rain = 0
KWT1 270442Z 17007KT 17/09 A2999 RMK A01 T01650094  RH  063%=      5-min Rain = 0
KWT1 270443Z 17007KT 16/09 A2999 RMK A01 T01640094  RH  063%=      5-min Rain = 0
KWT1 270444Z 17007KT 16/10 A2999 RMK A01 T01640095  RH  063%=      5-min Rain = 0
KWT1 270445Z 17007KT 16/10 A2999 RMK A01 T01630095  RH  064%=      5-min Rain = 0
KWT1 270446Z 17007KT 16/10 A2999 RMK A01 T01630095  RH  064%=      5-min Rain = 0
KWT1 270447Z 17006KT 16/10 A2999 RMK A01 T01630095  RH  064%=      5-min Rain = 0
KWT1 270448Z 17007KT 16/10 A2998 RMK A01 T01620095  RH  064%=      5-min Rain = 0
KWT1 270449Z 17007KT 16/10 A2998 RMK A01 T01620095  RH  064%=      5-min Rain = 0
KWT1 270450Z 17006KT 16/10 A2998 RMK A01 T01620095  RH  064%=      5-min Rain = 0
KWT1 270451Z 17006KT 16/10 A2998 RMK A01 T01620095  RH  065%=      5-min Rain = 0
KWT1 270452Z 17006KT 16/10 A2998 RMK A01 T01610095  RH  065%=      5-min Rain = 0
KWT1 270453Z 17007KT 16/10 A2998 RMK A01 T01610095  RH  065%=      5-min Rain = 0
KWT1 270454Z 17007KT 16/10 A2998 RMK A01 T01610095  RH  065%=      5-min Rain = 0
KWT1 270455Z 17007KT 16/10 A2998 RMK A01 T01610096  RH  065%=      5-min Rain = 0
KWT1 270456Z 17007KT 16/10 A2998 RMK A01 T01610095  RH  065%=      5-min Rain = 0
KWT1 270457Z 17007KT 16/10 A2998 RMK A01 T01610096  RH  065%=      5-min Rain = 0
KWT1 270458Z 17007KT 16/10 A2998 RMK A01 T01610096  RH  065%=      5-min Rain = 0
KWT1 270459Z 17008KT 16/10 A2998 RMK A01 T01600096  RH  065%=      5-min Rain = 0

Page generated in 0.0813 seconds.